<?xml version="1.0" encoding="UTF-8" standalone="no" ?>
<gpx xmlns="http://www.topografix.com/GPX/1/1" xmlns:xsi="http://www.w3.org/2001/XMLSchema-instance" xsi:schemaLocation="http://www.topografix.com/GPX/1/1 http://www.topografix.com/GPX/1/1/gpx.xsd" version="1.1" creator="VisuGPX - https://www.visugpx.com">
  <metadata>
    <name>Gazeran - Foret de Rambouillet</name>
  </metadata>
  <trk>
    <name><![CDATA[Randonnée du 06/10/2022 à 09:25]]></name>
    <extensions>
      <line xmlns="http://www.topografix.com/GPX/gpx_style/0/2">
        <color>0000FF</color>
        <width>4</width>
      </line>
    </extensions>
    <trkseg>
      <trkpt lat="48.63622" lon="1.77458">
        <ele>138</ele>
        <time>2022-10-06T09:25:26+02:00</time>
      </trkpt>
      <trkpt lat="48.63614" lon="1.77425">
        <ele>136</ele>
        <time>2022-10-06T09:33:50+02:00</time>
      </trkpt>
      <trkpt lat="48.63594" lon="1.77409">
        <ele>134</ele>
        <time>2022-10-06T09:34:05+02:00</time>
      </trkpt>
      <trkpt lat="48.63574" lon="1.77391">
        <ele>135</ele>
        <time>2022-10-06T09:34:23+02:00</time>
      </trkpt>
      <trkpt lat="48.63554" lon="1.77377">
        <ele>136</ele>
        <time>2022-10-06T09:34:46+02:00</time>
      </trkpt>
      <trkpt lat="48.63532" lon="1.77365">
        <ele>138</ele>
        <time>2022-10-06T09:35:10+02:00</time>
      </trkpt>
      <trkpt lat="48.63538" lon="1.7733">
        <ele>136</ele>
        <time>2022-10-06T09:35:29+02:00</time>
      </trkpt>
      <trkpt lat="48.63544" lon="1.77296">
        <ele>137</ele>
        <time>2022-10-06T09:35:48+02:00</time>
      </trkpt>
      <trkpt lat="48.63548" lon="1.77262">
        <ele>136</ele>
        <time>2022-10-06T09:36:06+02:00</time>
      </trkpt>
      <trkpt lat="48.63553" lon="1.77227">
        <ele>136</ele>
        <time>2022-10-06T09:36:40+02:00</time>
      </trkpt>
      <trkpt lat="48.63561" lon="1.77194">
        <ele>137</ele>
        <time>2022-10-06T09:37:05+02:00</time>
      </trkpt>
      <trkpt lat="48.63565" lon="1.7716">
        <ele>136</ele>
        <time>2022-10-06T09:37:26+02:00</time>
      </trkpt>
      <trkpt lat="48.63569" lon="1.77126">
        <ele>136</ele>
        <time>2022-10-06T09:37:48+02:00</time>
      </trkpt>
      <trkpt lat="48.63573" lon="1.77092">
        <ele>136</ele>
        <time>2022-10-06T09:38:15+02:00</time>
      </trkpt>
      <trkpt lat="48.63594" lon="1.77082">
        <ele>136</ele>
        <time>2022-10-06T09:38:36+02:00</time>
      </trkpt>
      <trkpt lat="48.63617" lon="1.77073">
        <ele>135</ele>
        <time>2022-10-06T09:38:58+02:00</time>
      </trkpt>
      <trkpt lat="48.6364" lon="1.77066">
        <ele>134</ele>
        <time>2022-10-06T09:39:20+02:00</time>
      </trkpt>
      <trkpt lat="48.63662" lon="1.77054">
        <ele>134</ele>
        <time>2022-10-06T09:39:43+02:00</time>
      </trkpt>
      <trkpt lat="48.63685" lon="1.77053">
        <ele>137</ele>
        <time>2022-10-06T09:40:11+02:00</time>
      </trkpt>
      <trkpt lat="48.63708" lon="1.77057">
        <ele>139</ele>
        <time>2022-10-06T09:40:33+02:00</time>
      </trkpt>
      <trkpt lat="48.63725" lon="1.7708">
        <ele>139</ele>
        <time>2022-10-06T09:40:52+02:00</time>
      </trkpt>
      <trkpt lat="48.6374" lon="1.77105">
        <ele>139</ele>
        <time>2022-10-06T09:41:12+02:00</time>
      </trkpt>
      <trkpt lat="48.63758" lon="1.77128">
        <ele>137</ele>
        <time>2022-10-06T09:41:29+02:00</time>
      </trkpt>
      <trkpt lat="48.63781" lon="1.77125">
        <ele>137</ele>
        <time>2022-10-06T09:41:53+02:00</time>
      </trkpt>
      <trkpt lat="48.63805" lon="1.7712">
        <ele>138</ele>
        <time>2022-10-06T09:42:13+02:00</time>
      </trkpt>
      <trkpt lat="48.63827" lon="1.77114">
        <ele>138</ele>
        <time>2022-10-06T09:42:34+02:00</time>
      </trkpt>
      <trkpt lat="48.63849" lon="1.77108">
        <ele>142</ele>
        <time>2022-10-06T09:42:55+02:00</time>
      </trkpt>
      <trkpt lat="48.63872" lon="1.77108">
        <ele>140</ele>
        <time>2022-10-06T09:43:12+02:00</time>
      </trkpt>
      <trkpt lat="48.63892" lon="1.7709">
        <ele>143</ele>
        <time>2022-10-06T09:43:32+02:00</time>
      </trkpt>
      <trkpt lat="48.63912" lon="1.7707">
        <ele>143</ele>
        <time>2022-10-06T09:43:54+02:00</time>
      </trkpt>
      <trkpt lat="48.63934" lon="1.77062">
        <ele>142</ele>
        <time>2022-10-06T09:44:14+02:00</time>
      </trkpt>
      <trkpt lat="48.63957" lon="1.77062">
        <ele>142</ele>
        <time>2022-10-06T09:44:33+02:00</time>
      </trkpt>
      <trkpt lat="48.6398" lon="1.77061">
        <ele>141</ele>
        <time>2022-10-06T09:44:50+02:00</time>
      </trkpt>
      <trkpt lat="48.64003" lon="1.77061">
        <ele>139</ele>
        <time>2022-10-06T09:45:09+02:00</time>
      </trkpt>
      <trkpt lat="48.64026" lon="1.77066">
        <ele>140</ele>
        <time>2022-10-06T09:45:31+02:00</time>
      </trkpt>
      <trkpt lat="48.64049" lon="1.7707">
        <ele>138</ele>
        <time>2022-10-06T09:45:49+02:00</time>
      </trkpt>
      <trkpt lat="48.64072" lon="1.77067">
        <ele>140</ele>
        <time>2022-10-06T09:46:08+02:00</time>
      </trkpt>
      <trkpt lat="48.64092" lon="1.77046">
        <ele>140</ele>
        <time>2022-10-06T09:46:27+02:00</time>
      </trkpt>
      <trkpt lat="48.64107" lon="1.77021">
        <ele>140</ele>
        <time>2022-10-06T09:46:47+02:00</time>
      </trkpt>
      <trkpt lat="48.64125" lon="1.76999">
        <ele>141</ele>
        <time>2022-10-06T09:47:06+02:00</time>
      </trkpt>
      <trkpt lat="48.64144" lon="1.76978">
        <ele>141</ele>
        <time>2022-10-06T09:47:25+02:00</time>
      </trkpt>
      <trkpt lat="48.64162" lon="1.76957">
        <ele>142</ele>
        <time>2022-10-06T09:47:45+02:00</time>
      </trkpt>
      <trkpt lat="48.64178" lon="1.76933">
        <ele>143</ele>
        <time>2022-10-06T09:48:03+02:00</time>
      </trkpt>
      <trkpt lat="48.64193" lon="1.76908">
        <ele>145</ele>
        <time>2022-10-06T09:48:21+02:00</time>
      </trkpt>
      <trkpt lat="48.64211" lon="1.76885">
        <ele>145</ele>
        <time>2022-10-06T09:48:39+02:00</time>
      </trkpt>
      <trkpt lat="48.64227" lon="1.7686">
        <ele>144</ele>
        <time>2022-10-06T09:48:56+02:00</time>
      </trkpt>
      <trkpt lat="48.64242" lon="1.76834">
        <ele>144</ele>
        <time>2022-10-06T09:49:14+02:00</time>
      </trkpt>
      <trkpt lat="48.64256" lon="1.76806">
        <ele>145</ele>
        <time>2022-10-06T09:49:32+02:00</time>
      </trkpt>
      <trkpt lat="48.6427" lon="1.76779">
        <ele>145</ele>
        <time>2022-10-06T09:49:50+02:00</time>
      </trkpt>
      <trkpt lat="48.64284" lon="1.7675">
        <ele>146</ele>
        <time>2022-10-06T09:50:09+02:00</time>
      </trkpt>
      <trkpt lat="48.64301" lon="1.76726">
        <ele>144</ele>
        <time>2022-10-06T09:50:25+02:00</time>
      </trkpt>
      <trkpt lat="48.64319" lon="1.76704">
        <ele>144</ele>
        <time>2022-10-06T09:50:42+02:00</time>
      </trkpt>
      <trkpt lat="48.64336" lon="1.76682">
        <ele>144</ele>
        <time>2022-10-06T09:50:59+02:00</time>
      </trkpt>
      <trkpt lat="48.64353" lon="1.76657">
        <ele>143</ele>
        <time>2022-10-06T09:51:18+02:00</time>
      </trkpt>
      <trkpt lat="48.64362" lon="1.76626">
        <ele>142</ele>
        <time>2022-10-06T09:51:35+02:00</time>
      </trkpt>
      <trkpt lat="48.64366" lon="1.76591">
        <ele>140</ele>
        <time>2022-10-06T09:51:52+02:00</time>
      </trkpt>
      <trkpt lat="48.64365" lon="1.76555">
        <ele>139</ele>
        <time>2022-10-06T09:52:10+02:00</time>
      </trkpt>
      <trkpt lat="48.64365" lon="1.7652">
        <ele>139</ele>
        <time>2022-10-06T09:52:27+02:00</time>
      </trkpt>
      <trkpt lat="48.64366" lon="1.76486">
        <ele>138</ele>
        <time>2022-10-06T09:52:45+02:00</time>
      </trkpt>
      <trkpt lat="48.64367" lon="1.76451">
        <ele>138</ele>
        <time>2022-10-06T09:53:05+02:00</time>
      </trkpt>
      <trkpt lat="48.64365" lon="1.76417">
        <ele>138</ele>
        <time>2022-10-06T09:53:21+02:00</time>
      </trkpt>
      <trkpt lat="48.64367" lon="1.76382">
        <ele>140</ele>
        <time>2022-10-06T09:53:40+02:00</time>
      </trkpt>
      <trkpt lat="48.64373" lon="1.76348">
        <ele>140</ele>
        <time>2022-10-06T09:53:58+02:00</time>
      </trkpt>
      <trkpt lat="48.64379" lon="1.76315">
        <ele>141</ele>
        <time>2022-10-06T09:54:17+02:00</time>
      </trkpt>
      <trkpt lat="48.64391" lon="1.76286">
        <ele>143</ele>
        <time>2022-10-06T09:54:38+02:00</time>
      </trkpt>
      <trkpt lat="48.6441" lon="1.76266">
        <ele>146</ele>
        <time>2022-10-06T09:55:00+02:00</time>
      </trkpt>
      <trkpt lat="48.64427" lon="1.76243">
        <ele>145</ele>
        <time>2022-10-06T09:55:19+02:00</time>
      </trkpt>
      <trkpt lat="48.64442" lon="1.76215">
        <ele>146</ele>
        <time>2022-10-06T09:55:39+02:00</time>
      </trkpt>
      <trkpt lat="48.64454" lon="1.76186">
        <ele>147</ele>
        <time>2022-10-06T09:55:58+02:00</time>
      </trkpt>
      <trkpt lat="48.64465" lon="1.76154">
        <ele>150</ele>
        <time>2022-10-06T09:56:16+02:00</time>
      </trkpt>
      <trkpt lat="48.64477" lon="1.76125">
        <ele>151</ele>
        <time>2022-10-06T09:56:36+02:00</time>
      </trkpt>
      <trkpt lat="48.64483" lon="1.76091">
        <ele>152</ele>
        <time>2022-10-06T09:56:53+02:00</time>
      </trkpt>
      <trkpt lat="48.64492" lon="1.76058">
        <ele>152</ele>
        <time>2022-10-06T09:57:12+02:00</time>
      </trkpt>
      <trkpt lat="48.64501" lon="1.76027">
        <ele>155</ele>
        <time>2022-10-06T09:57:31+02:00</time>
      </trkpt>
      <trkpt lat="48.64511" lon="1.75996">
        <ele>156</ele>
        <time>2022-10-06T09:57:48+02:00</time>
      </trkpt>
      <trkpt lat="48.64523" lon="1.75966">
        <ele>157</ele>
        <time>2022-10-06T09:58:07+02:00</time>
      </trkpt>
      <trkpt lat="48.64538" lon="1.75941">
        <ele>157</ele>
        <time>2022-10-06T09:58:26+02:00</time>
      </trkpt>
      <trkpt lat="48.64549" lon="1.75909">
        <ele>156</ele>
        <time>2022-10-06T09:58:45+02:00</time>
      </trkpt>
      <trkpt lat="48.64564" lon="1.75882">
        <ele>157</ele>
        <time>2022-10-06T09:59:04+02:00</time>
      </trkpt>
      <trkpt lat="48.64579" lon="1.75855">
        <ele>156</ele>
        <time>2022-10-06T09:59:25+02:00</time>
      </trkpt>
      <trkpt lat="48.64594" lon="1.75828">
        <ele>157</ele>
        <time>2022-10-06T09:59:44+02:00</time>
      </trkpt>
      <trkpt lat="48.64608" lon="1.758">
        <ele>157</ele>
        <time>2022-10-06T10:00:06+02:00</time>
      </trkpt>
      <trkpt lat="48.64621" lon="1.75771">
        <ele>158</ele>
        <time>2022-10-06T10:00:27+02:00</time>
      </trkpt>
      <trkpt lat="48.64636" lon="1.75745">
        <ele>161</ele>
        <time>2022-10-06T10:00:45+02:00</time>
      </trkpt>
      <trkpt lat="48.64655" lon="1.75724">
        <ele>162</ele>
        <time>2022-10-06T10:01:05+02:00</time>
      </trkpt>
      <trkpt lat="48.64672" lon="1.75701">
        <ele>163</ele>
        <time>2022-10-06T10:01:24+02:00</time>
      </trkpt>
      <trkpt lat="48.64689" lon="1.75678">
        <ele>166</ele>
        <time>2022-10-06T10:01:46+02:00</time>
      </trkpt>
      <trkpt lat="48.64707" lon="1.75658">
        <ele>167</ele>
        <time>2022-10-06T10:02:12+02:00</time>
      </trkpt>
      <trkpt lat="48.64723" lon="1.75631">
        <ele>168</ele>
        <time>2022-10-06T10:02:34+02:00</time>
      </trkpt>
      <trkpt lat="48.64741" lon="1.75606">
        <ele>169</ele>
        <time>2022-10-06T10:02:56+02:00</time>
      </trkpt>
      <trkpt lat="48.64756" lon="1.75579">
        <ele>170</ele>
        <time>2022-10-06T10:03:17+02:00</time>
      </trkpt>
      <trkpt lat="48.64778" lon="1.75593">
        <ele>170</ele>
        <time>2022-10-06T10:03:40+02:00</time>
      </trkpt>
      <trkpt lat="48.64797" lon="1.75613">
        <ele>170</ele>
        <time>2022-10-06T10:04:00+02:00</time>
      </trkpt>
      <trkpt lat="48.64818" lon="1.75629">
        <ele>169</ele>
        <time>2022-10-06T10:04:22+02:00</time>
      </trkpt>
      <trkpt lat="48.6484" lon="1.75635">
        <ele>169</ele>
        <time>2022-10-06T10:04:43+02:00</time>
      </trkpt>
      <trkpt lat="48.6486" lon="1.75654">
        <ele>167</ele>
        <time>2022-10-06T10:05:01+02:00</time>
      </trkpt>
      <trkpt lat="48.64876" lon="1.75677">
        <ele>167</ele>
        <time>2022-10-06T10:05:20+02:00</time>
      </trkpt>
      <trkpt lat="48.64895" lon="1.75698">
        <ele>167</ele>
        <time>2022-10-06T10:05:41+02:00</time>
      </trkpt>
      <trkpt lat="48.64914" lon="1.75719">
        <ele>167</ele>
        <time>2022-10-06T10:06:03+02:00</time>
      </trkpt>
      <trkpt lat="48.64934" lon="1.75734">
        <ele>169</ele>
        <time>2022-10-06T10:06:30+02:00</time>
      </trkpt>
      <trkpt lat="48.64951" lon="1.7576">
        <ele>168</ele>
        <time>2022-10-06T10:06:55+02:00</time>
      </trkpt>
      <trkpt lat="48.64971" lon="1.75778">
        <ele>169</ele>
        <time>2022-10-06T10:07:17+02:00</time>
      </trkpt>
      <trkpt lat="48.64991" lon="1.75793">
        <ele>168</ele>
        <time>2022-10-06T10:07:39+02:00</time>
      </trkpt>
      <trkpt lat="48.64988" lon="1.75757">
        <ele>170</ele>
        <time>2022-10-06T10:08:37+02:00</time>
      </trkpt>
      <trkpt lat="48.64974" lon="1.7573">
        <ele>169</ele>
        <time>2022-10-06T10:09:01+02:00</time>
      </trkpt>
      <trkpt lat="48.6496" lon="1.75701">
        <ele>171</ele>
        <time>2022-10-06T10:09:26+02:00</time>
      </trkpt>
      <trkpt lat="48.64952" lon="1.75668">
        <ele>170</ele>
        <time>2022-10-06T10:09:46+02:00</time>
      </trkpt>
      <trkpt lat="48.64944" lon="1.75636">
        <ele>170</ele>
        <time>2022-10-06T10:10:07+02:00</time>
      </trkpt>
      <trkpt lat="48.6495" lon="1.75602">
        <ele>173</ele>
        <time>2022-10-06T10:10:33+02:00</time>
      </trkpt>
      <trkpt lat="48.64961" lon="1.75572">
        <ele>174</ele>
        <time>2022-10-06T10:10:52+02:00</time>
      </trkpt>
      <trkpt lat="48.64977" lon="1.75547">
        <ele>173</ele>
        <time>2022-10-06T10:11:13+02:00</time>
      </trkpt>
      <trkpt lat="48.64991" lon="1.75521">
        <ele>174</ele>
        <time>2022-10-06T10:11:30+02:00</time>
      </trkpt>
      <trkpt lat="48.65005" lon="1.75494">
        <ele>174</ele>
        <time>2022-10-06T10:11:48+02:00</time>
      </trkpt>
      <trkpt lat="48.6502" lon="1.75467">
        <ele>173</ele>
        <time>2022-10-06T10:12:06+02:00</time>
      </trkpt>
      <trkpt lat="48.65036" lon="1.75441">
        <ele>172</ele>
        <time>2022-10-06T10:12:24+02:00</time>
      </trkpt>
      <trkpt lat="48.65052" lon="1.75413">
        <ele>171</ele>
        <time>2022-10-06T10:12:43+02:00</time>
      </trkpt>
      <trkpt lat="48.65066" lon="1.75387">
        <ele>171</ele>
        <time>2022-10-06T10:13:00+02:00</time>
      </trkpt>
      <trkpt lat="48.6508" lon="1.75359">
        <ele>170</ele>
        <time>2022-10-06T10:13:18+02:00</time>
      </trkpt>
      <trkpt lat="48.65094" lon="1.75331">
        <ele>170</ele>
        <time>2022-10-06T10:13:37+02:00</time>
      </trkpt>
      <trkpt lat="48.65107" lon="1.75304">
        <ele>170</ele>
        <time>2022-10-06T10:13:53+02:00</time>
      </trkpt>
      <trkpt lat="48.65121" lon="1.75277">
        <ele>170</ele>
        <time>2022-10-06T10:14:10+02:00</time>
      </trkpt>
      <trkpt lat="48.65135" lon="1.7525">
        <ele>167</ele>
        <time>2022-10-06T10:14:29+02:00</time>
      </trkpt>
      <trkpt lat="48.65148" lon="1.75221">
        <ele>168</ele>
        <time>2022-10-06T10:14:48+02:00</time>
      </trkpt>
      <trkpt lat="48.65162" lon="1.75192">
        <ele>166</ele>
        <time>2022-10-06T10:15:09+02:00</time>
      </trkpt>
      <trkpt lat="48.65178" lon="1.75167">
        <ele>166</ele>
        <time>2022-10-06T10:15:30+02:00</time>
      </trkpt>
      <trkpt lat="48.65195" lon="1.75142">
        <ele>166</ele>
        <time>2022-10-06T10:15:48+02:00</time>
      </trkpt>
      <trkpt lat="48.65208" lon="1.75112">
        <ele>168</ele>
        <time>2022-10-06T10:16:09+02:00</time>
      </trkpt>
      <trkpt lat="48.65224" lon="1.75086">
        <ele>166</ele>
        <time>2022-10-06T10:16:29+02:00</time>
      </trkpt>
      <trkpt lat="48.65237" lon="1.75057">
        <ele>167</ele>
        <time>2022-10-06T10:16:49+02:00</time>
      </trkpt>
      <trkpt lat="48.6525" lon="1.7503">
        <ele>167</ele>
        <time>2022-10-06T10:17:07+02:00</time>
      </trkpt>
      <trkpt lat="48.65269" lon="1.75008">
        <ele>167</ele>
        <time>2022-10-06T10:18:29+02:00</time>
      </trkpt>
      <trkpt lat="48.65283" lon="1.74981">
        <ele>168</ele>
        <time>2022-10-06T10:18:54+02:00</time>
      </trkpt>
      <trkpt lat="48.65295" lon="1.7495">
        <ele>170</ele>
        <time>2022-10-06T10:20:45+02:00</time>
      </trkpt>
      <trkpt lat="48.65311" lon="1.74926">
        <ele>170</ele>
        <time>2022-10-06T10:21:30+02:00</time>
      </trkpt>
      <trkpt lat="48.65324" lon="1.74896">
        <ele>172</ele>
        <time>2022-10-06T10:22:00+02:00</time>
      </trkpt>
      <trkpt lat="48.65337" lon="1.74867">
        <ele>169</ele>
        <time>2022-10-06T10:22:24+02:00</time>
      </trkpt>
      <trkpt lat="48.65354" lon="1.74844">
        <ele>168</ele>
        <time>2022-10-06T10:22:44+02:00</time>
      </trkpt>
      <trkpt lat="48.6537" lon="1.74816">
        <ele>168</ele>
        <time>2022-10-06T10:23:06+02:00</time>
      </trkpt>
      <trkpt lat="48.65386" lon="1.74792">
        <ele>168</ele>
        <time>2022-10-06T10:23:26+02:00</time>
      </trkpt>
      <trkpt lat="48.65397" lon="1.74762">
        <ele>169</ele>
        <time>2022-10-06T10:23:44+02:00</time>
      </trkpt>
      <trkpt lat="48.65411" lon="1.74734">
        <ele>170</ele>
        <time>2022-10-06T10:24:04+02:00</time>
      </trkpt>
      <trkpt lat="48.65425" lon="1.74707">
        <ele>172</ele>
        <time>2022-10-06T10:24:25+02:00</time>
      </trkpt>
      <trkpt lat="48.65441" lon="1.74682">
        <ele>173</ele>
        <time>2022-10-06T10:24:44+02:00</time>
      </trkpt>
      <trkpt lat="48.65456" lon="1.74655">
        <ele>172</ele>
        <time>2022-10-06T10:25:05+02:00</time>
      </trkpt>
      <trkpt lat="48.6547" lon="1.74628">
        <ele>172</ele>
        <time>2022-10-06T10:25:26+02:00</time>
      </trkpt>
      <trkpt lat="48.65485" lon="1.74601">
        <ele>172</ele>
        <time>2022-10-06T10:25:47+02:00</time>
      </trkpt>
      <trkpt lat="48.65507" lon="1.74592">
        <ele>169</ele>
        <time>2022-10-06T10:26:10+02:00</time>
      </trkpt>
      <trkpt lat="48.6553" lon="1.74597">
        <ele>169</ele>
        <time>2022-10-06T10:26:32+02:00</time>
      </trkpt>
      <trkpt lat="48.65552" lon="1.74607">
        <ele>170</ele>
        <time>2022-10-06T10:26:51+02:00</time>
      </trkpt>
      <trkpt lat="48.65574" lon="1.74616">
        <ele>170</ele>
        <time>2022-10-06T10:27:13+02:00</time>
      </trkpt>
      <trkpt lat="48.65586" lon="1.74647">
        <ele>169</ele>
        <time>2022-10-06T10:27:36+02:00</time>
      </trkpt>
      <trkpt lat="48.65592" lon="1.74681">
        <ele>169</ele>
        <time>2022-10-06T10:27:58+02:00</time>
      </trkpt>
      <trkpt lat="48.65608" lon="1.74707">
        <ele>169</ele>
        <time>2022-10-06T10:28:19+02:00</time>
      </trkpt>
      <trkpt lat="48.65618" lon="1.74739">
        <ele>169</ele>
        <time>2022-10-06T10:28:39+02:00</time>
      </trkpt>
      <trkpt lat="48.6563" lon="1.74767">
        <ele>169</ele>
        <time>2022-10-06T10:28:55+02:00</time>
      </trkpt>
      <trkpt lat="48.65653" lon="1.74774">
        <ele>168</ele>
        <time>2022-10-06T10:29:23+02:00</time>
      </trkpt>
      <trkpt lat="48.65629" lon="1.74771">
        <ele>167</ele>
        <time>2022-10-06T10:31:06+02:00</time>
      </trkpt>
      <trkpt lat="48.65618" lon="1.74742">
        <ele>168</ele>
        <time>2022-10-06T10:31:28+02:00</time>
      </trkpt>
      <trkpt lat="48.65611" lon="1.74709">
        <ele>167</ele>
        <time>2022-10-06T10:32:03+02:00</time>
      </trkpt>
      <trkpt lat="48.65622" lon="1.7474">
        <ele>171</ele>
        <time>2022-10-06T10:35:41+02:00</time>
      </trkpt>
      <trkpt lat="48.65634" lon="1.74768">
        <ele>173</ele>
        <time>2022-10-06T10:36:02+02:00</time>
      </trkpt>
      <trkpt lat="48.65657" lon="1.74763">
        <ele>170</ele>
        <time>2022-10-06T10:36:41+02:00</time>
      </trkpt>
      <trkpt lat="48.65672" lon="1.74738">
        <ele>169</ele>
        <time>2022-10-06T10:37:02+02:00</time>
      </trkpt>
      <trkpt lat="48.65685" lon="1.74708">
        <ele>169</ele>
        <time>2022-10-06T10:37:23+02:00</time>
      </trkpt>
      <trkpt lat="48.65698" lon="1.74679">
        <ele>168</ele>
        <time>2022-10-06T10:37:43+02:00</time>
      </trkpt>
      <trkpt lat="48.65713" lon="1.74653">
        <ele>170</ele>
        <time>2022-10-06T10:38:02+02:00</time>
      </trkpt>
      <trkpt lat="48.65725" lon="1.74624">
        <ele>169</ele>
        <time>2022-10-06T10:38:20+02:00</time>
      </trkpt>
      <trkpt lat="48.65738" lon="1.74595">
        <ele>167</ele>
        <time>2022-10-06T10:38:40+02:00</time>
      </trkpt>
      <trkpt lat="48.65752" lon="1.74568">
        <ele>169</ele>
        <time>2022-10-06T10:38:59+02:00</time>
      </trkpt>
      <trkpt lat="48.65765" lon="1.74539">
        <ele>169</ele>
        <time>2022-10-06T10:39:20+02:00</time>
      </trkpt>
      <trkpt lat="48.65775" lon="1.74506">
        <ele>168</ele>
        <time>2022-10-06T10:39:43+02:00</time>
      </trkpt>
      <trkpt lat="48.65796" lon="1.74494">
        <ele>166</ele>
        <time>2022-10-06T10:40:07+02:00</time>
      </trkpt>
      <trkpt lat="48.65819" lon="1.74488">
        <ele>167</ele>
        <time>2022-10-06T10:40:25+02:00</time>
      </trkpt>
      <trkpt lat="48.65834" lon="1.74462">
        <ele>165</ele>
        <time>2022-10-06T10:40:46+02:00</time>
      </trkpt>
      <trkpt lat="48.65854" lon="1.74442">
        <ele>166</ele>
        <time>2022-10-06T10:41:11+02:00</time>
      </trkpt>
      <trkpt lat="48.65876" lon="1.74436">
        <ele>165</ele>
        <time>2022-10-06T10:41:32+02:00</time>
      </trkpt>
      <trkpt lat="48.65897" lon="1.74424">
        <ele>165</ele>
        <time>2022-10-06T10:41:52+02:00</time>
      </trkpt>
      <trkpt lat="48.65919" lon="1.74414">
        <ele>166</ele>
        <time>2022-10-06T10:42:13+02:00</time>
      </trkpt>
      <trkpt lat="48.65941" lon="1.74408">
        <ele>165</ele>
        <time>2022-10-06T10:42:31+02:00</time>
      </trkpt>
      <trkpt lat="48.65964" lon="1.74399">
        <ele>165</ele>
        <time>2022-10-06T10:42:49+02:00</time>
      </trkpt>
      <trkpt lat="48.65987" lon="1.74391">
        <ele>164</ele>
        <time>2022-10-06T10:43:09+02:00</time>
      </trkpt>
      <trkpt lat="48.66008" lon="1.74372">
        <ele>164</ele>
        <time>2022-10-06T10:43:26+02:00</time>
      </trkpt>
      <trkpt lat="48.66025" lon="1.74346">
        <ele>164</ele>
        <time>2022-10-06T10:43:49+02:00</time>
      </trkpt>
      <trkpt lat="48.66036" lon="1.74316">
        <ele>162</ele>
        <time>2022-10-06T10:44:10+02:00</time>
      </trkpt>
      <trkpt lat="48.66049" lon="1.74289">
        <ele>163</ele>
        <time>2022-10-06T10:44:29+02:00</time>
      </trkpt>
      <trkpt lat="48.66062" lon="1.74261">
        <ele>165</ele>
        <time>2022-10-06T10:44:49+02:00</time>
      </trkpt>
      <trkpt lat="48.66077" lon="1.74234">
        <ele>162</ele>
        <time>2022-10-06T10:45:06+02:00</time>
      </trkpt>
      <trkpt lat="48.66091" lon="1.74207">
        <ele>163</ele>
        <time>2022-10-06T10:45:25+02:00</time>
      </trkpt>
      <trkpt lat="48.66099" lon="1.74175">
        <ele>160</ele>
        <time>2022-10-06T10:45:45+02:00</time>
      </trkpt>
      <trkpt lat="48.66115" lon="1.74148">
        <ele>161</ele>
        <time>2022-10-06T10:46:03+02:00</time>
      </trkpt>
      <trkpt lat="48.66124" lon="1.74117">
        <ele>163</ele>
        <time>2022-10-06T10:46:20+02:00</time>
      </trkpt>
      <trkpt lat="48.66136" lon="1.74087">
        <ele>166</ele>
        <time>2022-10-06T10:46:39+02:00</time>
      </trkpt>
      <trkpt lat="48.6615" lon="1.7406">
        <ele>166</ele>
        <time>2022-10-06T10:46:57+02:00</time>
      </trkpt>
      <trkpt lat="48.66165" lon="1.74034">
        <ele>167</ele>
        <time>2022-10-06T10:47:16+02:00</time>
      </trkpt>
      <trkpt lat="48.6618" lon="1.74008">
        <ele>169</ele>
        <time>2022-10-06T10:47:37+02:00</time>
      </trkpt>
      <trkpt lat="48.66202" lon="1.74003">
        <ele>167</ele>
        <time>2022-10-06T10:47:56+02:00</time>
      </trkpt>
      <trkpt lat="48.66226" lon="1.74009">
        <ele>166</ele>
        <time>2022-10-06T10:48:11+02:00</time>
      </trkpt>
      <trkpt lat="48.66248" lon="1.7402">
        <ele>165</ele>
        <time>2022-10-06T10:48:30+02:00</time>
      </trkpt>
      <trkpt lat="48.6627" lon="1.7403">
        <ele>163</ele>
        <time>2022-10-06T10:48:49+02:00</time>
      </trkpt>
      <trkpt lat="48.66292" lon="1.74039">
        <ele>160</ele>
        <time>2022-10-06T10:49:06+02:00</time>
      </trkpt>
      <trkpt lat="48.66314" lon="1.74029">
        <ele>157</ele>
        <time>2022-10-06T10:49:33+02:00</time>
      </trkpt>
      <trkpt lat="48.66328" lon="1.74002">
        <ele>159</ele>
        <time>2022-10-06T10:50:31+02:00</time>
      </trkpt>
      <trkpt lat="48.66341" lon="1.73973">
        <ele>156</ele>
        <time>2022-10-06T10:50:59+02:00</time>
      </trkpt>
      <trkpt lat="48.66356" lon="1.73946">
        <ele>155</ele>
        <time>2022-10-06T10:51:22+02:00</time>
      </trkpt>
      <trkpt lat="48.66372" lon="1.73922">
        <ele>153</ele>
        <time>2022-10-06T10:51:44+02:00</time>
      </trkpt>
      <trkpt lat="48.66383" lon="1.73892">
        <ele>152</ele>
        <time>2022-10-06T10:52:04+02:00</time>
      </trkpt>
      <trkpt lat="48.66399" lon="1.73866">
        <ele>153</ele>
        <time>2022-10-06T10:52:24+02:00</time>
      </trkpt>
      <trkpt lat="48.66413" lon="1.73839">
        <ele>152</ele>
        <time>2022-10-06T10:52:44+02:00</time>
      </trkpt>
      <trkpt lat="48.66428" lon="1.73811">
        <ele>151</ele>
        <time>2022-10-06T10:53:04+02:00</time>
      </trkpt>
      <trkpt lat="48.6644" lon="1.73782">
        <ele>150</ele>
        <time>2022-10-06T10:53:23+02:00</time>
      </trkpt>
      <trkpt lat="48.66457" lon="1.73757">
        <ele>148</ele>
        <time>2022-10-06T10:53:43+02:00</time>
      </trkpt>
      <trkpt lat="48.66468" lon="1.73726">
        <ele>148</ele>
        <time>2022-10-06T10:54:02+02:00</time>
      </trkpt>
      <trkpt lat="48.66482" lon="1.73699">
        <ele>146</ele>
        <time>2022-10-06T10:54:20+02:00</time>
      </trkpt>
      <trkpt lat="48.66499" lon="1.73674">
        <ele>144</ele>
        <time>2022-10-06T10:54:40+02:00</time>
      </trkpt>
      <trkpt lat="48.66512" lon="1.73644">
        <ele>144</ele>
        <time>2022-10-06T10:55:03+02:00</time>
      </trkpt>
      <trkpt lat="48.66526" lon="1.73615">
        <ele>143</ele>
        <time>2022-10-06T10:55:23+02:00</time>
      </trkpt>
      <trkpt lat="48.6654" lon="1.73588">
        <ele>142</ele>
        <time>2022-10-06T10:55:44+02:00</time>
      </trkpt>
      <trkpt lat="48.66552" lon="1.73559">
        <ele>142</ele>
        <time>2022-10-06T10:56:03+02:00</time>
      </trkpt>
      <trkpt lat="48.66566" lon="1.73531">
        <ele>142</ele>
        <time>2022-10-06T10:56:22+02:00</time>
      </trkpt>
      <trkpt lat="48.66573" lon="1.73498">
        <ele>143</ele>
        <time>2022-10-06T10:57:17+02:00</time>
      </trkpt>
      <trkpt lat="48.66562" lon="1.73468">
        <ele>145</ele>
        <time>2022-10-06T10:58:38+02:00</time>
      </trkpt>
      <trkpt lat="48.66552" lon="1.73437">
        <ele>147</ele>
        <time>2022-10-06T10:58:59+02:00</time>
      </trkpt>
      <trkpt lat="48.66543" lon="1.73405">
        <ele>149</ele>
        <time>2022-10-06T10:59:20+02:00</time>
      </trkpt>
      <trkpt lat="48.66534" lon="1.73373">
        <ele>150</ele>
        <time>2022-10-06T10:59:42+02:00</time>
      </trkpt>
      <trkpt lat="48.66524" lon="1.73341">
        <ele>150</ele>
        <time>2022-10-06T11:00:01+02:00</time>
      </trkpt>
      <trkpt lat="48.66511" lon="1.73313">
        <ele>152</ele>
        <time>2022-10-06T11:00:27+02:00</time>
      </trkpt>
      <trkpt lat="48.665" lon="1.73283">
        <ele>151</ele>
        <time>2022-10-06T11:00:49+02:00</time>
      </trkpt>
      <trkpt lat="48.66489" lon="1.73253">
        <ele>151</ele>
        <time>2022-10-06T11:01:09+02:00</time>
      </trkpt>
      <trkpt lat="48.66479" lon="1.73221">
        <ele>151</ele>
        <time>2022-10-06T11:01:28+02:00</time>
      </trkpt>
      <trkpt lat="48.66468" lon="1.7319">
        <ele>153</ele>
        <time>2022-10-06T11:01:47+02:00</time>
      </trkpt>
      <trkpt lat="48.66457" lon="1.73159">
        <ele>156</ele>
        <time>2022-10-06T11:02:09+02:00</time>
      </trkpt>
      <trkpt lat="48.66447" lon="1.73127">
        <ele>158</ele>
        <time>2022-10-06T11:02:35+02:00</time>
      </trkpt>
      <trkpt lat="48.66438" lon="1.73095">
        <ele>156</ele>
        <time>2022-10-06T11:02:58+02:00</time>
      </trkpt>
      <trkpt lat="48.66428" lon="1.73063">
        <ele>154</ele>
        <time>2022-10-06T11:03:18+02:00</time>
      </trkpt>
      <trkpt lat="48.66417" lon="1.73033">
        <ele>151</ele>
        <time>2022-10-06T11:03:42+02:00</time>
      </trkpt>
      <trkpt lat="48.66406" lon="1.73003">
        <ele>149</ele>
        <time>2022-10-06T11:04:01+02:00</time>
      </trkpt>
      <trkpt lat="48.66395" lon="1.72972">
        <ele>148</ele>
        <time>2022-10-06T11:04:19+02:00</time>
      </trkpt>
      <trkpt lat="48.66384" lon="1.72941">
        <ele>146</ele>
        <time>2022-10-06T11:04:40+02:00</time>
      </trkpt>
      <trkpt lat="48.66375" lon="1.7291">
        <ele>146</ele>
        <time>2022-10-06T11:04:59+02:00</time>
      </trkpt>
      <trkpt lat="48.66362" lon="1.72881">
        <ele>149</ele>
        <time>2022-10-06T11:05:18+02:00</time>
      </trkpt>
      <trkpt lat="48.66353" lon="1.7285">
        <ele>151</ele>
        <time>2022-10-06T11:05:36+02:00</time>
      </trkpt>
      <trkpt lat="48.66343" lon="1.72819">
        <ele>152</ele>
        <time>2022-10-06T11:05:53+02:00</time>
      </trkpt>
      <trkpt lat="48.66333" lon="1.72789">
        <ele>153</ele>
        <time>2022-10-06T11:06:16+02:00</time>
      </trkpt>
      <trkpt lat="48.66322" lon="1.72759">
        <ele>155</ele>
        <time>2022-10-06T11:06:37+02:00</time>
      </trkpt>
      <trkpt lat="48.66311" lon="1.72728">
        <ele>157</ele>
        <time>2022-10-06T11:07:13+02:00</time>
      </trkpt>
      <trkpt lat="48.66298" lon="1.72701">
        <ele>158</ele>
        <time>2022-10-06T11:07:40+02:00</time>
      </trkpt>
      <trkpt lat="48.66285" lon="1.72673">
        <ele>158</ele>
        <time>2022-10-06T11:13:43+02:00</time>
      </trkpt>
      <trkpt lat="48.66282" lon="1.72639">
        <ele>155</ele>
        <time>2022-10-06T11:14:10+02:00</time>
      </trkpt>
      <trkpt lat="48.66274" lon="1.72606">
        <ele>155</ele>
        <time>2022-10-06T11:14:29+02:00</time>
      </trkpt>
      <trkpt lat="48.66262" lon="1.72577">
        <ele>154</ele>
        <time>2022-10-06T11:14:50+02:00</time>
      </trkpt>
      <trkpt lat="48.66251" lon="1.72547">
        <ele>154</ele>
        <time>2022-10-06T11:15:11+02:00</time>
      </trkpt>
      <trkpt lat="48.66242" lon="1.72513">
        <ele>150</ele>
        <time>2022-10-06T11:15:35+02:00</time>
      </trkpt>
      <trkpt lat="48.66231" lon="1.72484">
        <ele>150</ele>
        <time>2022-10-06T11:15:58+02:00</time>
      </trkpt>
      <trkpt lat="48.66224" lon="1.72451">
        <ele>149</ele>
        <time>2022-10-06T11:16:22+02:00</time>
      </trkpt>
      <trkpt lat="48.66219" lon="1.72417">
        <ele>147</ele>
        <time>2022-10-06T11:16:41+02:00</time>
      </trkpt>
      <trkpt lat="48.66213" lon="1.72383">
        <ele>146</ele>
        <time>2022-10-06T11:17:01+02:00</time>
      </trkpt>
      <trkpt lat="48.6621" lon="1.72349">
        <ele>145</ele>
        <time>2022-10-06T11:17:19+02:00</time>
      </trkpt>
      <trkpt lat="48.66207" lon="1.72314">
        <ele>145</ele>
        <time>2022-10-06T11:17:38+02:00</time>
      </trkpt>
      <trkpt lat="48.66205" lon="1.7228">
        <ele>146</ele>
        <time>2022-10-06T11:17:56+02:00</time>
      </trkpt>
      <trkpt lat="48.66201" lon="1.72245">
        <ele>145</ele>
        <time>2022-10-06T11:18:15+02:00</time>
      </trkpt>
      <trkpt lat="48.66195" lon="1.7221">
        <ele>143</ele>
        <time>2022-10-06T11:18:34+02:00</time>
      </trkpt>
      <trkpt lat="48.66192" lon="1.72176">
        <ele>143</ele>
        <time>2022-10-06T11:18:54+02:00</time>
      </trkpt>
      <trkpt lat="48.66187" lon="1.72142">
        <ele>142</ele>
        <time>2022-10-06T11:19:14+02:00</time>
      </trkpt>
      <trkpt lat="48.66183" lon="1.72108">
        <ele>142</ele>
        <time>2022-10-06T11:19:33+02:00</time>
      </trkpt>
      <trkpt lat="48.66182" lon="1.72072">
        <ele>139</ele>
        <time>2022-10-06T11:19:55+02:00</time>
      </trkpt>
      <trkpt lat="48.66178" lon="1.72038">
        <ele>139</ele>
        <time>2022-10-06T11:20:14+02:00</time>
      </trkpt>
      <trkpt lat="48.66173" lon="1.72004">
        <ele>138</ele>
        <time>2022-10-06T11:20:33+02:00</time>
      </trkpt>
      <trkpt lat="48.66169" lon="1.71971">
        <ele>138</ele>
        <time>2022-10-06T11:20:50+02:00</time>
      </trkpt>
      <trkpt lat="48.66162" lon="1.71939">
        <ele>140</ele>
        <time>2022-10-06T11:21:11+02:00</time>
      </trkpt>
      <trkpt lat="48.66169" lon="1.71907">
        <ele>141</ele>
        <time>2022-10-06T11:21:43+02:00</time>
      </trkpt>
      <trkpt lat="48.66192" lon="1.71904">
        <ele>138</ele>
        <time>2022-10-06T11:22:17+02:00</time>
      </trkpt>
      <trkpt lat="48.66214" lon="1.71894">
        <ele>136</ele>
        <time>2022-10-06T11:22:58+02:00</time>
      </trkpt>
      <trkpt lat="48.66236" lon="1.71883">
        <ele>135</ele>
        <time>2022-10-06T11:23:18+02:00</time>
      </trkpt>
      <trkpt lat="48.66259" lon="1.71871">
        <ele>135</ele>
        <time>2022-10-06T11:23:38+02:00</time>
      </trkpt>
      <trkpt lat="48.66281" lon="1.71864">
        <ele>134</ele>
        <time>2022-10-06T11:24:06+02:00</time>
      </trkpt>
      <trkpt lat="48.66303" lon="1.71854">
        <ele>134</ele>
        <time>2022-10-06T11:25:41+02:00</time>
      </trkpt>
      <trkpt lat="48.66325" lon="1.71844">
        <ele>135</ele>
        <time>2022-10-06T11:26:01+02:00</time>
      </trkpt>
      <trkpt lat="48.66347" lon="1.71834">
        <ele>133</ele>
        <time>2022-10-06T11:26:20+02:00</time>
      </trkpt>
      <trkpt lat="48.66369" lon="1.71826">
        <ele>133</ele>
        <time>2022-10-06T11:26:47+02:00</time>
      </trkpt>
      <trkpt lat="48.66347" lon="1.71835">
        <ele>135</ele>
        <time>2022-10-06T11:29:00+02:00</time>
      </trkpt>
      <trkpt lat="48.66325" lon="1.71843">
        <ele>135</ele>
        <time>2022-10-06T11:29:23+02:00</time>
      </trkpt>
      <trkpt lat="48.66302" lon="1.71853">
        <ele>133</ele>
        <time>2022-10-06T11:29:42+02:00</time>
      </trkpt>
      <trkpt lat="48.66281" lon="1.71861">
        <ele>134</ele>
        <time>2022-10-06T11:30:04+02:00</time>
      </trkpt>
      <trkpt lat="48.66261" lon="1.7188">
        <ele>135</ele>
        <time>2022-10-06T11:30:26+02:00</time>
      </trkpt>
      <trkpt lat="48.66239" lon="1.7189">
        <ele>138</ele>
        <time>2022-10-06T11:30:54+02:00</time>
      </trkpt>
      <trkpt lat="48.66217" lon="1.71897">
        <ele>138</ele>
        <time>2022-10-06T11:31:13+02:00</time>
      </trkpt>
      <trkpt lat="48.66195" lon="1.71907">
        <ele>140</ele>
        <time>2022-10-06T11:31:33+02:00</time>
      </trkpt>
      <trkpt lat="48.66171" lon="1.71914">
        <ele>141</ele>
        <time>2022-10-06T11:31:52+02:00</time>
      </trkpt>
      <trkpt lat="48.66153" lon="1.71895">
        <ele>140</ele>
        <time>2022-10-06T11:33:00+02:00</time>
      </trkpt>
      <trkpt lat="48.66142" lon="1.71864">
        <ele>139</ele>
        <time>2022-10-06T11:33:23+02:00</time>
      </trkpt>
      <trkpt lat="48.66124" lon="1.71843">
        <ele>140</ele>
        <time>2022-10-06T11:33:43+02:00</time>
      </trkpt>
      <trkpt lat="48.66103" lon="1.71828">
        <ele>143</ele>
        <time>2022-10-06T11:34:05+02:00</time>
      </trkpt>
      <trkpt lat="48.66081" lon="1.71828">
        <ele>144</ele>
        <time>2022-10-06T11:34:22+02:00</time>
      </trkpt>
      <trkpt lat="48.66057" lon="1.71829">
        <ele>145</ele>
        <time>2022-10-06T11:34:44+02:00</time>
      </trkpt>
      <trkpt lat="48.66034" lon="1.71827">
        <ele>145</ele>
        <time>2022-10-06T11:35:05+02:00</time>
      </trkpt>
      <trkpt lat="48.66012" lon="1.71827">
        <ele>148</ele>
        <time>2022-10-06T11:35:24+02:00</time>
      </trkpt>
      <trkpt lat="48.65989" lon="1.71828">
        <ele>149</ele>
        <time>2022-10-06T11:35:48+02:00</time>
      </trkpt>
      <trkpt lat="48.65966" lon="1.71831">
        <ele>150</ele>
        <time>2022-10-06T11:36:07+02:00</time>
      </trkpt>
      <trkpt lat="48.65944" lon="1.71838">
        <ele>151</ele>
        <time>2022-10-06T11:36:29+02:00</time>
      </trkpt>
      <trkpt lat="48.65921" lon="1.71845">
        <ele>153</ele>
        <time>2022-10-06T11:36:48+02:00</time>
      </trkpt>
      <trkpt lat="48.65899" lon="1.71851">
        <ele>155</ele>
        <time>2022-10-06T11:37:06+02:00</time>
      </trkpt>
      <trkpt lat="48.65876" lon="1.71858">
        <ele>155</ele>
        <time>2022-10-06T11:37:28+02:00</time>
      </trkpt>
      <trkpt lat="48.65852" lon="1.71863">
        <ele>156</ele>
        <time>2022-10-06T11:37:50+02:00</time>
      </trkpt>
      <trkpt lat="48.65829" lon="1.71863">
        <ele>157</ele>
        <time>2022-10-06T11:38:15+02:00</time>
      </trkpt>
      <trkpt lat="48.65806" lon="1.71862">
        <ele>157</ele>
        <time>2022-10-06T11:38:39+02:00</time>
      </trkpt>
      <trkpt lat="48.65783" lon="1.71871">
        <ele>160</ele>
        <time>2022-10-06T11:39:02+02:00</time>
      </trkpt>
      <trkpt lat="48.65761" lon="1.71885">
        <ele>164</ele>
        <time>2022-10-06T11:39:30+02:00</time>
      </trkpt>
      <trkpt lat="48.6574" lon="1.71895">
        <ele>165</ele>
        <time>2022-10-06T11:39:55+02:00</time>
      </trkpt>
      <trkpt lat="48.65719" lon="1.71909">
        <ele>169</ele>
        <time>2022-10-06T11:40:25+02:00</time>
      </trkpt>
      <trkpt lat="48.65697" lon="1.71919">
        <ele>171</ele>
        <time>2022-10-06T11:40:51+02:00</time>
      </trkpt>
      <trkpt lat="48.65677" lon="1.719">
        <ele>172</ele>
        <time>2022-10-06T11:42:24+02:00</time>
      </trkpt>
      <trkpt lat="48.65655" lon="1.71894">
        <ele>172</ele>
        <time>2022-10-06T11:42:48+02:00</time>
      </trkpt>
      <trkpt lat="48.65635" lon="1.71876">
        <ele>171</ele>
        <time>2022-10-06T11:43:10+02:00</time>
      </trkpt>
      <trkpt lat="48.65615" lon="1.71857">
        <ele>171</ele>
        <time>2022-10-06T11:43:33+02:00</time>
      </trkpt>
      <trkpt lat="48.65593" lon="1.71849">
        <ele>169</ele>
        <time>2022-10-06T11:43:59+02:00</time>
      </trkpt>
      <trkpt lat="48.6557" lon="1.7184">
        <ele>167</ele>
        <time>2022-10-06T11:44:21+02:00</time>
      </trkpt>
      <trkpt lat="48.65551" lon="1.71821">
        <ele>167</ele>
        <time>2022-10-06T11:44:47+02:00</time>
      </trkpt>
      <trkpt lat="48.65535" lon="1.71796">
        <ele>166</ele>
        <time>2022-10-06T11:45:10+02:00</time>
      </trkpt>
      <trkpt lat="48.65521" lon="1.71768">
        <ele>166</ele>
        <time>2022-10-06T11:45:35+02:00</time>
      </trkpt>
      <trkpt lat="48.65506" lon="1.71742">
        <ele>166</ele>
        <time>2022-10-06T11:45:55+02:00</time>
      </trkpt>
      <trkpt lat="48.65493" lon="1.71714">
        <ele>166</ele>
        <time>2022-10-06T11:46:14+02:00</time>
      </trkpt>
      <trkpt lat="48.65481" lon="1.71685">
        <ele>166</ele>
        <time>2022-10-06T11:46:37+02:00</time>
      </trkpt>
      <trkpt lat="48.65467" lon="1.71657">
        <ele>167</ele>
        <time>2022-10-06T11:46:57+02:00</time>
      </trkpt>
      <trkpt lat="48.65452" lon="1.7163">
        <ele>167</ele>
        <time>2022-10-06T11:47:17+02:00</time>
      </trkpt>
      <trkpt lat="48.65436" lon="1.71605">
        <ele>166</ele>
        <time>2022-10-06T11:47:39+02:00</time>
      </trkpt>
      <trkpt lat="48.6542" lon="1.71578">
        <ele>167</ele>
        <time>2022-10-06T11:47:59+02:00</time>
      </trkpt>
      <trkpt lat="48.65405" lon="1.71553">
        <ele>166</ele>
        <time>2022-10-06T11:48:20+02:00</time>
      </trkpt>
      <trkpt lat="48.65393" lon="1.71523">
        <ele>165</ele>
        <time>2022-10-06T11:48:40+02:00</time>
      </trkpt>
      <trkpt lat="48.65383" lon="1.71491">
        <ele>165</ele>
        <time>2022-10-06T11:49:00+02:00</time>
      </trkpt>
      <trkpt lat="48.65371" lon="1.7146">
        <ele>165</ele>
        <time>2022-10-06T11:49:19+02:00</time>
      </trkpt>
      <trkpt lat="48.65359" lon="1.71431">
        <ele>164</ele>
        <time>2022-10-06T11:49:41+02:00</time>
      </trkpt>
      <trkpt lat="48.65346" lon="1.71402">
        <ele>164</ele>
        <time>2022-10-06T11:50:01+02:00</time>
      </trkpt>
      <trkpt lat="48.65333" lon="1.71373">
        <ele>163</ele>
        <time>2022-10-06T11:50:21+02:00</time>
      </trkpt>
      <trkpt lat="48.6532" lon="1.71345">
        <ele>163</ele>
        <time>2022-10-06T11:50:42+02:00</time>
      </trkpt>
      <trkpt lat="48.65307" lon="1.71316">
        <ele>163</ele>
        <time>2022-10-06T11:51:02+02:00</time>
      </trkpt>
      <trkpt lat="48.65292" lon="1.71289">
        <ele>162</ele>
        <time>2022-10-06T11:51:23+02:00</time>
      </trkpt>
      <trkpt lat="48.65275" lon="1.71264">
        <ele>162</ele>
        <time>2022-10-06T11:51:43+02:00</time>
      </trkpt>
      <trkpt lat="48.6526" lon="1.71238">
        <ele>162</ele>
        <time>2022-10-06T11:52:02+02:00</time>
      </trkpt>
      <trkpt lat="48.65248" lon="1.71209">
        <ele>162</ele>
        <time>2022-10-06T11:52:24+02:00</time>
      </trkpt>
      <trkpt lat="48.65236" lon="1.71181">
        <ele>161</ele>
        <time>2022-10-06T11:52:44+02:00</time>
      </trkpt>
      <trkpt lat="48.65223" lon="1.71152">
        <ele>159</ele>
        <time>2022-10-06T11:53:08+02:00</time>
      </trkpt>
      <trkpt lat="48.65211" lon="1.71123">
        <ele>159</ele>
        <time>2022-10-06T11:53:30+02:00</time>
      </trkpt>
      <trkpt lat="48.65197" lon="1.71094">
        <ele>159</ele>
        <time>2022-10-06T11:53:50+02:00</time>
      </trkpt>
      <trkpt lat="48.65185" lon="1.71063">
        <ele>159</ele>
        <time>2022-10-06T11:54:41+02:00</time>
      </trkpt>
      <trkpt lat="48.65174" lon="1.71032">
        <ele>159</ele>
        <time>2022-10-06T11:55:04+02:00</time>
      </trkpt>
      <trkpt lat="48.65163" lon="1.71002">
        <ele>158</ele>
        <time>2022-10-06T11:55:22+02:00</time>
      </trkpt>
      <trkpt lat="48.65154" lon="1.70971">
        <ele>159</ele>
        <time>2022-10-06T11:55:42+02:00</time>
      </trkpt>
      <trkpt lat="48.65145" lon="1.70938">
        <ele>160</ele>
        <time>2022-10-06T11:56:03+02:00</time>
      </trkpt>
      <trkpt lat="48.65137" lon="1.70905">
        <ele>162</ele>
        <time>2022-10-06T11:56:23+02:00</time>
      </trkpt>
      <trkpt lat="48.65125" lon="1.70876">
        <ele>162</ele>
        <time>2022-10-06T11:56:44+02:00</time>
      </trkpt>
      <trkpt lat="48.65114" lon="1.70845">
        <ele>164</ele>
        <time>2022-10-06T11:57:05+02:00</time>
      </trkpt>
      <trkpt lat="48.65106" lon="1.70813">
        <ele>162</ele>
        <time>2022-10-06T11:57:24+02:00</time>
      </trkpt>
      <trkpt lat="48.65097" lon="1.7078">
        <ele>161</ele>
        <time>2022-10-06T11:57:44+02:00</time>
      </trkpt>
      <trkpt lat="48.65086" lon="1.70748">
        <ele>161</ele>
        <time>2022-10-06T11:58:04+02:00</time>
      </trkpt>
      <trkpt lat="48.65076" lon="1.70718">
        <ele>161</ele>
        <time>2022-10-06T11:58:25+02:00</time>
      </trkpt>
      <trkpt lat="48.65065" lon="1.70686">
        <ele>162</ele>
        <time>2022-10-06T11:58:56+02:00</time>
      </trkpt>
      <trkpt lat="48.65054" lon="1.70656">
        <ele>162</ele>
        <time>2022-10-06T11:59:17+02:00</time>
      </trkpt>
      <trkpt lat="48.65043" lon="1.70625">
        <ele>163</ele>
        <time>2022-10-06T11:59:39+02:00</time>
      </trkpt>
      <trkpt lat="48.65031" lon="1.70595">
        <ele>163</ele>
        <time>2022-10-06T12:00:01+02:00</time>
      </trkpt>
      <trkpt lat="48.65018" lon="1.70565">
        <ele>162</ele>
        <time>2022-10-06T12:01:49+02:00</time>
      </trkpt>
      <trkpt lat="48.65005" lon="1.70536">
        <ele>161</ele>
        <time>2022-10-06T12:02:19+02:00</time>
      </trkpt>
      <trkpt lat="48.6499" lon="1.70509">
        <ele>162</ele>
        <time>2022-10-06T12:02:40+02:00</time>
      </trkpt>
      <trkpt lat="48.64975" lon="1.70483">
        <ele>163</ele>
        <time>2022-10-06T12:03:02+02:00</time>
      </trkpt>
      <trkpt lat="48.64959" lon="1.70459">
        <ele>165</ele>
        <time>2022-10-06T12:03:23+02:00</time>
      </trkpt>
      <trkpt lat="48.64942" lon="1.70436">
        <ele>164</ele>
        <time>2022-10-06T12:03:44+02:00</time>
      </trkpt>
      <trkpt lat="48.64926" lon="1.70411">
        <ele>164</ele>
        <time>2022-10-06T12:04:04+02:00</time>
      </trkpt>
      <trkpt lat="48.64909" lon="1.70387">
        <ele>164</ele>
        <time>2022-10-06T12:04:26+02:00</time>
      </trkpt>
      <trkpt lat="48.64893" lon="1.70363">
        <ele>166</ele>
        <time>2022-10-06T12:04:47+02:00</time>
      </trkpt>
      <trkpt lat="48.64878" lon="1.70336">
        <ele>165</ele>
        <time>2022-10-06T12:05:08+02:00</time>
      </trkpt>
      <trkpt lat="48.64863" lon="1.7031">
        <ele>166</ele>
        <time>2022-10-06T12:05:28+02:00</time>
      </trkpt>
      <trkpt lat="48.64848" lon="1.70284">
        <ele>165</ele>
        <time>2022-10-06T12:05:48+02:00</time>
      </trkpt>
      <trkpt lat="48.64831" lon="1.7026">
        <ele>166</ele>
        <time>2022-10-06T12:06:08+02:00</time>
      </trkpt>
      <trkpt lat="48.64815" lon="1.70236">
        <ele>165</ele>
        <time>2022-10-06T12:06:28+02:00</time>
      </trkpt>
      <trkpt lat="48.648" lon="1.70212">
        <ele>164</ele>
        <time>2022-10-06T12:06:49+02:00</time>
      </trkpt>
      <trkpt lat="48.64782" lon="1.70189">
        <ele>163</ele>
        <time>2022-10-06T12:07:11+02:00</time>
      </trkpt>
      <trkpt lat="48.64763" lon="1.70167">
        <ele>163</ele>
        <time>2022-10-06T12:07:30+02:00</time>
      </trkpt>
      <trkpt lat="48.64744" lon="1.70149">
        <ele>163</ele>
        <time>2022-10-06T12:07:51+02:00</time>
      </trkpt>
      <trkpt lat="48.64725" lon="1.70128">
        <ele>162</ele>
        <time>2022-10-06T12:08:11+02:00</time>
      </trkpt>
      <trkpt lat="48.64707" lon="1.70106">
        <ele>161</ele>
        <time>2022-10-06T12:08:31+02:00</time>
      </trkpt>
      <trkpt lat="48.64687" lon="1.70085">
        <ele>161</ele>
        <time>2022-10-06T12:08:53+02:00</time>
      </trkpt>
      <trkpt lat="48.64669" lon="1.70062">
        <ele>160</ele>
        <time>2022-10-06T12:09:14+02:00</time>
      </trkpt>
      <trkpt lat="48.64651" lon="1.7004">
        <ele>158</ele>
        <time>2022-10-06T12:09:35+02:00</time>
      </trkpt>
      <trkpt lat="48.64633" lon="1.70018">
        <ele>156</ele>
        <time>2022-10-06T12:09:55+02:00</time>
      </trkpt>
      <trkpt lat="48.64616" lon="1.69995">
        <ele>157</ele>
        <time>2022-10-06T12:10:15+02:00</time>
      </trkpt>
      <trkpt lat="48.646" lon="1.6997">
        <ele>158</ele>
        <time>2022-10-06T12:10:35+02:00</time>
      </trkpt>
      <trkpt lat="48.64583" lon="1.69947">
        <ele>159</ele>
        <time>2022-10-06T12:10:56+02:00</time>
      </trkpt>
      <trkpt lat="48.64567" lon="1.69922">
        <ele>159</ele>
        <time>2022-10-06T12:11:18+02:00</time>
      </trkpt>
      <trkpt lat="48.64552" lon="1.69896">
        <ele>160</ele>
        <time>2022-10-06T12:11:40+02:00</time>
      </trkpt>
      <trkpt lat="48.64537" lon="1.69871">
        <ele>160</ele>
        <time>2022-10-06T12:12:02+02:00</time>
      </trkpt>
      <trkpt lat="48.64521" lon="1.69842">
        <ele>161</ele>
        <time>2022-10-06T12:12:33+02:00</time>
      </trkpt>
      <trkpt lat="48.64506" lon="1.69816">
        <ele>161</ele>
        <time>2022-10-06T12:13:01+02:00</time>
      </trkpt>
      <trkpt lat="48.64488" lon="1.69795">
        <ele>161</ele>
        <time>2022-10-06T12:13:23+02:00</time>
      </trkpt>
      <trkpt lat="48.64469" lon="1.69775">
        <ele>160</ele>
        <time>2022-10-06T12:13:44+02:00</time>
      </trkpt>
      <trkpt lat="48.64449" lon="1.69757">
        <ele>159</ele>
        <time>2022-10-06T12:14:08+02:00</time>
      </trkpt>
      <trkpt lat="48.64426" lon="1.69744">
        <ele>157</ele>
        <time>2022-10-06T12:14:39+02:00</time>
      </trkpt>
      <trkpt lat="48.64407" lon="1.69724">
        <ele>156</ele>
        <time>2022-10-06T12:15:00+02:00</time>
      </trkpt>
      <trkpt lat="48.64393" lon="1.69694">
        <ele>154</ele>
        <time>2022-10-06T12:15:42+02:00</time>
      </trkpt>
      <trkpt lat="48.64378" lon="1.69668">
        <ele>152</ele>
        <time>2022-10-06T12:16:22+02:00</time>
      </trkpt>
      <trkpt lat="48.64363" lon="1.69642">
        <ele>151</ele>
        <time>2022-10-06T12:16:46+02:00</time>
      </trkpt>
      <trkpt lat="48.6435" lon="1.69612">
        <ele>149</ele>
        <time>2022-10-06T12:17:10+02:00</time>
      </trkpt>
      <trkpt lat="48.64333" lon="1.69589">
        <ele>147</ele>
        <time>2022-10-06T12:17:33+02:00</time>
      </trkpt>
      <trkpt lat="48.64314" lon="1.69567">
        <ele>146</ele>
        <time>2022-10-06T12:17:55+02:00</time>
      </trkpt>
      <trkpt lat="48.64294" lon="1.6955">
        <ele>144</ele>
        <time>2022-10-06T12:18:37+02:00</time>
      </trkpt>
      <trkpt lat="48.64273" lon="1.69537">
        <ele>143</ele>
        <time>2022-10-06T12:19:00+02:00</time>
      </trkpt>
      <trkpt lat="48.64253" lon="1.6952">
        <ele>142</ele>
        <time>2022-10-06T12:19:23+02:00</time>
      </trkpt>
      <trkpt lat="48.64236" lon="1.69496">
        <ele>141</ele>
        <time>2022-10-06T12:19:45+02:00</time>
      </trkpt>
      <trkpt lat="48.64218" lon="1.69473">
        <ele>141</ele>
        <time>2022-10-06T12:20:09+02:00</time>
      </trkpt>
      <trkpt lat="48.64203" lon="1.69447">
        <ele>140</ele>
        <time>2022-10-06T12:20:36+02:00</time>
      </trkpt>
      <trkpt lat="48.64187" lon="1.69421">
        <ele>139</ele>
        <time>2022-10-06T12:21:00+02:00</time>
      </trkpt>
      <trkpt lat="48.64173" lon="1.69394">
        <ele>138</ele>
        <time>2022-10-06T12:21:24+02:00</time>
      </trkpt>
      <trkpt lat="48.64159" lon="1.69366">
        <ele>137</ele>
        <time>2022-10-06T12:21:44+02:00</time>
      </trkpt>
      <trkpt lat="48.64141" lon="1.6934">
        <ele>136</ele>
        <time>2022-10-06T12:22:05+02:00</time>
      </trkpt>
      <trkpt lat="48.64124" lon="1.69317">
        <ele>135</ele>
        <time>2022-10-06T12:22:26+02:00</time>
      </trkpt>
      <trkpt lat="48.64106" lon="1.69296">
        <ele>135</ele>
        <time>2022-10-06T12:22:48+02:00</time>
      </trkpt>
      <trkpt lat="48.64088" lon="1.69274">
        <ele>135</ele>
        <time>2022-10-06T12:23:05+02:00</time>
      </trkpt>
      <trkpt lat="48.64069" lon="1.69254">
        <ele>135</ele>
        <time>2022-10-06T12:23:25+02:00</time>
      </trkpt>
      <trkpt lat="48.6405" lon="1.69232">
        <ele>134</ele>
        <time>2022-10-06T12:23:45+02:00</time>
      </trkpt>
      <trkpt lat="48.64032" lon="1.6921">
        <ele>133</ele>
        <time>2022-10-06T12:24:08+02:00</time>
      </trkpt>
      <trkpt lat="48.64013" lon="1.6919">
        <ele>133</ele>
        <time>2022-10-06T12:24:25+02:00</time>
      </trkpt>
      <trkpt lat="48.64008" lon="1.69225">
        <ele>132</ele>
        <time>2022-10-06T12:25:06+02:00</time>
      </trkpt>
      <trkpt lat="48.63998" lon="1.69257">
        <ele>133</ele>
        <time>2022-10-06T12:25:23+02:00</time>
      </trkpt>
      <trkpt lat="48.63991" lon="1.6929">
        <ele>133</ele>
        <time>2022-10-06T12:25:47+02:00</time>
      </trkpt>
      <trkpt lat="48.63981" lon="1.69321">
        <ele>133</ele>
        <time>2022-10-06T12:26:06+02:00</time>
      </trkpt>
      <trkpt lat="48.63973" lon="1.69354">
        <ele>133</ele>
        <time>2022-10-06T12:26:26+02:00</time>
      </trkpt>
      <trkpt lat="48.63965" lon="1.69388">
        <ele>134</ele>
        <time>2022-10-06T12:26:50+02:00</time>
      </trkpt>
      <trkpt lat="48.63961" lon="1.69422">
        <ele>134</ele>
        <time>2022-10-06T12:27:08+02:00</time>
      </trkpt>
      <trkpt lat="48.63959" lon="1.69456">
        <ele>135</ele>
        <time>2022-10-06T12:28:49+02:00</time>
      </trkpt>
      <trkpt lat="48.63958" lon="1.6949">
        <ele>135</ele>
        <time>2022-10-06T12:29:17+02:00</time>
      </trkpt>
      <trkpt lat="48.63956" lon="1.69525">
        <ele>135</ele>
        <time>2022-10-06T12:29:34+02:00</time>
      </trkpt>
      <trkpt lat="48.63956" lon="1.6956">
        <ele>136</ele>
        <time>2022-10-06T12:29:54+02:00</time>
      </trkpt>
      <trkpt lat="48.63955" lon="1.69595">
        <ele>136</ele>
        <time>2022-10-06T12:30:16+02:00</time>
      </trkpt>
      <trkpt lat="48.63957" lon="1.6963">
        <ele>137</ele>
        <time>2022-10-06T12:30:38+02:00</time>
      </trkpt>
      <trkpt lat="48.63957" lon="1.69664">
        <ele>138</ele>
        <time>2022-10-06T12:31:02+02:00</time>
      </trkpt>
      <trkpt lat="48.63955" lon="1.69699">
        <ele>140</ele>
        <time>2022-10-06T12:31:41+02:00</time>
      </trkpt>
      <trkpt lat="48.63955" lon="1.69735">
        <ele>141</ele>
        <time>2022-10-06T12:32:12+02:00</time>
      </trkpt>
      <trkpt lat="48.63948" lon="1.69767">
        <ele>141</ele>
        <time>2022-10-06T12:32:40+02:00</time>
      </trkpt>
      <trkpt lat="48.63968" lon="1.69782">
        <ele>141</ele>
        <time>2022-10-06T12:34:32+02:00</time>
      </trkpt>
      <trkpt lat="48.63991" lon="1.69792">
        <ele>143</ele>
        <time>2022-10-06T12:37:54+02:00</time>
      </trkpt>
      <trkpt lat="48.63969" lon="1.69793">
        <ele>142</ele>
        <time>2022-10-06T13:17:57+02:00</time>
      </trkpt>
      <trkpt lat="48.63951" lon="1.69771">
        <ele>141</ele>
        <time>2022-10-06T13:18:43+02:00</time>
      </trkpt>
      <trkpt lat="48.63932" lon="1.69788">
        <ele>141</ele>
        <time>2022-10-06T13:19:04+02:00</time>
      </trkpt>
      <trkpt lat="48.63912" lon="1.69805">
        <ele>140</ele>
        <time>2022-10-06T13:19:31+02:00</time>
      </trkpt>
      <trkpt lat="48.63892" lon="1.69823">
        <ele>140</ele>
        <time>2022-10-06T13:19:51+02:00</time>
      </trkpt>
      <trkpt lat="48.63871" lon="1.69833">
        <ele>140</ele>
        <time>2022-10-06T13:20:12+02:00</time>
      </trkpt>
      <trkpt lat="48.63853" lon="1.6981">
        <ele>138</ele>
        <time>2022-10-06T13:20:38+02:00</time>
      </trkpt>
      <trkpt lat="48.63839" lon="1.69784">
        <ele>137</ele>
        <time>2022-10-06T13:21:00+02:00</time>
      </trkpt>
      <trkpt lat="48.63823" lon="1.6976">
        <ele>137</ele>
        <time>2022-10-06T13:21:18+02:00</time>
      </trkpt>
      <trkpt lat="48.63805" lon="1.69736">
        <ele>136</ele>
        <time>2022-10-06T13:21:37+02:00</time>
      </trkpt>
      <trkpt lat="48.6379" lon="1.69712">
        <ele>136</ele>
        <time>2022-10-06T13:21:56+02:00</time>
      </trkpt>
      <trkpt lat="48.63772" lon="1.69689">
        <ele>136</ele>
        <time>2022-10-06T13:22:13+02:00</time>
      </trkpt>
      <trkpt lat="48.63755" lon="1.69663">
        <ele>136</ele>
        <time>2022-10-06T13:22:31+02:00</time>
      </trkpt>
      <trkpt lat="48.63739" lon="1.69637">
        <ele>137</ele>
        <time>2022-10-06T13:22:51+02:00</time>
      </trkpt>
      <trkpt lat="48.63724" lon="1.69612">
        <ele>137</ele>
        <time>2022-10-06T13:23:07+02:00</time>
      </trkpt>
      <trkpt lat="48.63709" lon="1.69584">
        <ele>137</ele>
        <time>2022-10-06T13:23:27+02:00</time>
      </trkpt>
      <trkpt lat="48.63697" lon="1.69553">
        <ele>136</ele>
        <time>2022-10-06T13:23:48+02:00</time>
      </trkpt>
      <trkpt lat="48.63682" lon="1.69526">
        <ele>136</ele>
        <time>2022-10-06T13:24:06+02:00</time>
      </trkpt>
      <trkpt lat="48.63669" lon="1.69498">
        <ele>136</ele>
        <time>2022-10-06T13:24:22+02:00</time>
      </trkpt>
      <trkpt lat="48.63654" lon="1.69471">
        <ele>136</ele>
        <time>2022-10-06T13:24:39+02:00</time>
      </trkpt>
      <trkpt lat="48.63638" lon="1.69444">
        <ele>137</ele>
        <time>2022-10-06T13:24:59+02:00</time>
      </trkpt>
      <trkpt lat="48.6362" lon="1.69421">
        <ele>137</ele>
        <time>2022-10-06T13:25:18+02:00</time>
      </trkpt>
      <trkpt lat="48.63599" lon="1.69402">
        <ele>137</ele>
        <time>2022-10-06T13:25:36+02:00</time>
      </trkpt>
      <trkpt lat="48.63579" lon="1.69385">
        <ele>137</ele>
        <time>2022-10-06T13:25:54+02:00</time>
      </trkpt>
      <trkpt lat="48.63557" lon="1.6937">
        <ele>138</ele>
        <time>2022-10-06T13:26:13+02:00</time>
      </trkpt>
      <trkpt lat="48.63538" lon="1.69351">
        <ele>139</ele>
        <time>2022-10-06T13:26:30+02:00</time>
      </trkpt>
      <trkpt lat="48.6352" lon="1.69328">
        <ele>139</ele>
        <time>2022-10-06T13:26:46+02:00</time>
      </trkpt>
      <trkpt lat="48.63504" lon="1.69303">
        <ele>140</ele>
        <time>2022-10-06T13:27:05+02:00</time>
      </trkpt>
      <trkpt lat="48.63488" lon="1.69279">
        <ele>140</ele>
        <time>2022-10-06T13:27:25+02:00</time>
      </trkpt>
      <trkpt lat="48.63471" lon="1.69254">
        <ele>140</ele>
        <time>2022-10-06T13:27:44+02:00</time>
      </trkpt>
      <trkpt lat="48.63456" lon="1.69227">
        <ele>140</ele>
        <time>2022-10-06T13:28:03+02:00</time>
      </trkpt>
      <trkpt lat="48.6344" lon="1.69201">
        <ele>140</ele>
        <time>2022-10-06T13:28:20+02:00</time>
      </trkpt>
      <trkpt lat="48.63424" lon="1.69174">
        <ele>139</ele>
        <time>2022-10-06T13:28:37+02:00</time>
      </trkpt>
      <trkpt lat="48.63409" lon="1.69148">
        <ele>139</ele>
        <time>2022-10-06T13:28:53+02:00</time>
      </trkpt>
      <trkpt lat="48.63395" lon="1.6912">
        <ele>138</ele>
        <time>2022-10-06T13:29:13+02:00</time>
      </trkpt>
      <trkpt lat="48.63384" lon="1.69088">
        <ele>137</ele>
        <time>2022-10-06T13:29:32+02:00</time>
      </trkpt>
      <trkpt lat="48.63371" lon="1.69058">
        <ele>137</ele>
        <time>2022-10-06T13:29:48+02:00</time>
      </trkpt>
      <trkpt lat="48.63358" lon="1.69027">
        <ele>136</ele>
        <time>2022-10-06T13:30:09+02:00</time>
      </trkpt>
      <trkpt lat="48.63345" lon="1.68996">
        <ele>136</ele>
        <time>2022-10-06T13:30:28+02:00</time>
      </trkpt>
      <trkpt lat="48.63334" lon="1.68966">
        <ele>135</ele>
        <time>2022-10-06T13:30:46+02:00</time>
      </trkpt>
      <trkpt lat="48.63321" lon="1.68935">
        <ele>135</ele>
        <time>2022-10-06T13:31:08+02:00</time>
      </trkpt>
      <trkpt lat="48.63309" lon="1.68904">
        <ele>134</ele>
        <time>2022-10-06T13:31:26+02:00</time>
      </trkpt>
      <trkpt lat="48.63297" lon="1.68876">
        <ele>133</ele>
        <time>2022-10-06T13:31:46+02:00</time>
      </trkpt>
      <trkpt lat="48.63285" lon="1.68845">
        <ele>133</ele>
        <time>2022-10-06T13:32:05+02:00</time>
      </trkpt>
      <trkpt lat="48.63273" lon="1.68815">
        <ele>132</ele>
        <time>2022-10-06T13:32:23+02:00</time>
      </trkpt>
      <trkpt lat="48.63258" lon="1.68787">
        <ele>131</ele>
        <time>2022-10-06T13:32:38+02:00</time>
      </trkpt>
      <trkpt lat="48.6324" lon="1.68766">
        <ele>131</ele>
        <time>2022-10-06T13:32:54+02:00</time>
      </trkpt>
      <trkpt lat="48.63222" lon="1.68786">
        <ele>131</ele>
        <time>2022-10-06T13:33:22+02:00</time>
      </trkpt>
      <trkpt lat="48.63209" lon="1.68815">
        <ele>132</ele>
        <time>2022-10-06T13:33:46+02:00</time>
      </trkpt>
      <trkpt lat="48.63196" lon="1.68844">
        <ele>133</ele>
        <time>2022-10-06T13:34:04+02:00</time>
      </trkpt>
      <trkpt lat="48.63184" lon="1.68874">
        <ele>134</ele>
        <time>2022-10-06T13:34:24+02:00</time>
      </trkpt>
      <trkpt lat="48.63172" lon="1.68904">
        <ele>135</ele>
        <time>2022-10-06T13:34:45+02:00</time>
      </trkpt>
      <trkpt lat="48.63158" lon="1.68932">
        <ele>137</ele>
        <time>2022-10-06T13:35:03+02:00</time>
      </trkpt>
      <trkpt lat="48.63147" lon="1.68962">
        <ele>138</ele>
        <time>2022-10-06T13:35:24+02:00</time>
      </trkpt>
      <trkpt lat="48.63137" lon="1.68994">
        <ele>139</ele>
        <time>2022-10-06T13:35:43+02:00</time>
      </trkpt>
      <trkpt lat="48.63123" lon="1.69023">
        <ele>140</ele>
        <time>2022-10-06T13:36:05+02:00</time>
      </trkpt>
      <trkpt lat="48.63114" lon="1.69055">
        <ele>141</ele>
        <time>2022-10-06T13:36:25+02:00</time>
      </trkpt>
      <trkpt lat="48.63105" lon="1.69086">
        <ele>141</ele>
        <time>2022-10-06T13:36:44+02:00</time>
      </trkpt>
      <trkpt lat="48.63097" lon="1.69118">
        <ele>143</ele>
        <time>2022-10-06T13:37:03+02:00</time>
      </trkpt>
      <trkpt lat="48.63096" lon="1.69153">
        <ele>144</ele>
        <time>2022-10-06T13:37:22+02:00</time>
      </trkpt>
      <trkpt lat="48.63091" lon="1.69187">
        <ele>145</ele>
        <time>2022-10-06T13:37:41+02:00</time>
      </trkpt>
      <trkpt lat="48.63087" lon="1.69221">
        <ele>147</ele>
        <time>2022-10-06T13:38:41+02:00</time>
      </trkpt>
      <trkpt lat="48.63083" lon="1.69256">
        <ele>148</ele>
        <time>2022-10-06T13:39:26+02:00</time>
      </trkpt>
      <trkpt lat="48.63082" lon="1.6929">
        <ele>151</ele>
        <time>2022-10-06T13:40:00+02:00</time>
      </trkpt>
      <trkpt lat="48.63076" lon="1.69323">
        <ele>152</ele>
        <time>2022-10-06T13:40:20+02:00</time>
      </trkpt>
      <trkpt lat="48.63075" lon="1.69357">
        <ele>155</ele>
        <time>2022-10-06T13:40:42+02:00</time>
      </trkpt>
      <trkpt lat="48.63073" lon="1.69391">
        <ele>157</ele>
        <time>2022-10-06T13:41:03+02:00</time>
      </trkpt>
      <trkpt lat="48.63076" lon="1.69427">
        <ele>159</ele>
        <time>2022-10-06T13:41:22+02:00</time>
      </trkpt>
      <trkpt lat="48.63083" lon="1.6946">
        <ele>161</ele>
        <time>2022-10-06T13:41:42+02:00</time>
      </trkpt>
      <trkpt lat="48.63097" lon="1.69489">
        <ele>163</ele>
        <time>2022-10-06T13:42:02+02:00</time>
      </trkpt>
      <trkpt lat="48.63107" lon="1.6952">
        <ele>164</ele>
        <time>2022-10-06T13:42:26+02:00</time>
      </trkpt>
      <trkpt lat="48.63113" lon="1.69553">
        <ele>165</ele>
        <time>2022-10-06T13:42:43+02:00</time>
      </trkpt>
      <trkpt lat="48.63114" lon="1.69588">
        <ele>165</ele>
        <time>2022-10-06T13:43:01+02:00</time>
      </trkpt>
      <trkpt lat="48.63112" lon="1.69621">
        <ele>165</ele>
        <time>2022-10-06T13:43:19+02:00</time>
      </trkpt>
      <trkpt lat="48.63105" lon="1.69655">
        <ele>165</ele>
        <time>2022-10-06T13:43:35+02:00</time>
      </trkpt>
      <trkpt lat="48.63096" lon="1.69688">
        <ele>165</ele>
        <time>2022-10-06T13:43:52+02:00</time>
      </trkpt>
      <trkpt lat="48.63087" lon="1.69719">
        <ele>165</ele>
        <time>2022-10-06T13:44:09+02:00</time>
      </trkpt>
      <trkpt lat="48.63078" lon="1.6975">
        <ele>165</ele>
        <time>2022-10-06T13:44:26+02:00</time>
      </trkpt>
      <trkpt lat="48.63066" lon="1.69779">
        <ele>165</ele>
        <time>2022-10-06T13:44:43+02:00</time>
      </trkpt>
      <trkpt lat="48.63053" lon="1.69808">
        <ele>165</ele>
        <time>2022-10-06T13:44:58+02:00</time>
      </trkpt>
      <trkpt lat="48.63038" lon="1.69835">
        <ele>165</ele>
        <time>2022-10-06T13:45:16+02:00</time>
      </trkpt>
      <trkpt lat="48.63023" lon="1.69862">
        <ele>165</ele>
        <time>2022-10-06T13:45:32+02:00</time>
      </trkpt>
      <trkpt lat="48.63011" lon="1.69893">
        <ele>165</ele>
        <time>2022-10-06T13:45:49+02:00</time>
      </trkpt>
      <trkpt lat="48.62998" lon="1.6992">
        <ele>165</ele>
        <time>2022-10-06T13:46:07+02:00</time>
      </trkpt>
      <trkpt lat="48.62985" lon="1.6995">
        <ele>165</ele>
        <time>2022-10-06T13:46:23+02:00</time>
      </trkpt>
      <trkpt lat="48.62972" lon="1.69978">
        <ele>164</ele>
        <time>2022-10-06T13:46:40+02:00</time>
      </trkpt>
      <trkpt lat="48.62962" lon="1.7001">
        <ele>165</ele>
        <time>2022-10-06T13:46:57+02:00</time>
      </trkpt>
      <trkpt lat="48.62955" lon="1.70044">
        <ele>165</ele>
        <time>2022-10-06T13:47:15+02:00</time>
      </trkpt>
      <trkpt lat="48.6294" lon="1.70071">
        <ele>164</ele>
        <time>2022-10-06T13:49:48+02:00</time>
      </trkpt>
      <trkpt lat="48.62928" lon="1.70102">
        <ele>164</ele>
        <time>2022-10-06T13:50:09+02:00</time>
      </trkpt>
      <trkpt lat="48.62914" lon="1.70131">
        <ele>164</ele>
        <time>2022-10-06T13:50:31+02:00</time>
      </trkpt>
      <trkpt lat="48.62901" lon="1.70159">
        <ele>164</ele>
        <time>2022-10-06T13:50:50+02:00</time>
      </trkpt>
      <trkpt lat="48.62882" lon="1.70181">
        <ele>165</ele>
        <time>2022-10-06T13:51:09+02:00</time>
      </trkpt>
      <trkpt lat="48.62862" lon="1.702">
        <ele>167</ele>
        <time>2022-10-06T13:51:28+02:00</time>
      </trkpt>
      <trkpt lat="48.62841" lon="1.70217">
        <ele>167</ele>
        <time>2022-10-06T13:51:46+02:00</time>
      </trkpt>
      <trkpt lat="48.62819" lon="1.70229">
        <ele>163</ele>
        <time>2022-10-06T13:52:02+02:00</time>
      </trkpt>
      <trkpt lat="48.62796" lon="1.70232">
        <ele>160</ele>
        <time>2022-10-06T13:52:21+02:00</time>
      </trkpt>
      <trkpt lat="48.62772" lon="1.70231">
        <ele>156</ele>
        <time>2022-10-06T13:52:38+02:00</time>
      </trkpt>
      <trkpt lat="48.62749" lon="1.70228">
        <ele>156</ele>
        <time>2022-10-06T13:52:57+02:00</time>
      </trkpt>
      <trkpt lat="48.62726" lon="1.70221">
        <ele>155</ele>
        <time>2022-10-06T13:53:14+02:00</time>
      </trkpt>
      <trkpt lat="48.62703" lon="1.70215">
        <ele>154</ele>
        <time>2022-10-06T13:53:32+02:00</time>
      </trkpt>
      <trkpt lat="48.62679" lon="1.70209">
        <ele>154</ele>
        <time>2022-10-06T13:53:50+02:00</time>
      </trkpt>
      <trkpt lat="48.62657" lon="1.70203">
        <ele>154</ele>
        <time>2022-10-06T13:54:08+02:00</time>
      </trkpt>
      <trkpt lat="48.62633" lon="1.702">
        <ele>153</ele>
        <time>2022-10-06T13:54:25+02:00</time>
      </trkpt>
      <trkpt lat="48.62611" lon="1.70193">
        <ele>153</ele>
        <time>2022-10-06T13:54:42+02:00</time>
      </trkpt>
      <trkpt lat="48.62588" lon="1.70194">
        <ele>152</ele>
        <time>2022-10-06T13:54:59+02:00</time>
      </trkpt>
      <trkpt lat="48.62566" lon="1.70201">
        <ele>152</ele>
        <time>2022-10-06T13:55:16+02:00</time>
      </trkpt>
      <trkpt lat="48.62545" lon="1.70217">
        <ele>152</ele>
        <time>2022-10-06T13:55:34+02:00</time>
      </trkpt>
      <trkpt lat="48.62526" lon="1.70236">
        <ele>152</ele>
        <time>2022-10-06T13:55:52+02:00</time>
      </trkpt>
      <trkpt lat="48.62509" lon="1.7026">
        <ele>153</ele>
        <time>2022-10-06T13:56:10+02:00</time>
      </trkpt>
      <trkpt lat="48.62494" lon="1.70286">
        <ele>153</ele>
        <time>2022-10-06T13:56:28+02:00</time>
      </trkpt>
      <trkpt lat="48.62482" lon="1.70316">
        <ele>151</ele>
        <time>2022-10-06T13:56:52+02:00</time>
      </trkpt>
      <trkpt lat="48.62473" lon="1.7035">
        <ele>154</ele>
        <time>2022-10-06T13:57:15+02:00</time>
      </trkpt>
      <trkpt lat="48.62462" lon="1.7038">
        <ele>154</ele>
        <time>2022-10-06T13:57:33+02:00</time>
      </trkpt>
      <trkpt lat="48.6245" lon="1.70412">
        <ele>155</ele>
        <time>2022-10-06T13:57:52+02:00</time>
      </trkpt>
      <trkpt lat="48.62436" lon="1.70439">
        <ele>156</ele>
        <time>2022-10-06T13:58:10+02:00</time>
      </trkpt>
      <trkpt lat="48.62423" lon="1.70467">
        <ele>155</ele>
        <time>2022-10-06T13:58:28+02:00</time>
      </trkpt>
      <trkpt lat="48.62409" lon="1.70496">
        <ele>154</ele>
        <time>2022-10-06T13:58:47+02:00</time>
      </trkpt>
      <trkpt lat="48.62395" lon="1.70524">
        <ele>153</ele>
        <time>2022-10-06T13:59:05+02:00</time>
      </trkpt>
      <trkpt lat="48.62381" lon="1.70551">
        <ele>154</ele>
        <time>2022-10-06T13:59:23+02:00</time>
      </trkpt>
      <trkpt lat="48.6238" lon="1.70585">
        <ele>152</ele>
        <time>2022-10-06T13:59:48+02:00</time>
      </trkpt>
      <trkpt lat="48.62391" lon="1.70615">
        <ele>153</ele>
        <time>2022-10-06T14:00:07+02:00</time>
      </trkpt>
      <trkpt lat="48.62407" lon="1.70643">
        <ele>153</ele>
        <time>2022-10-06T14:00:27+02:00</time>
      </trkpt>
      <trkpt lat="48.62421" lon="1.70671">
        <ele>153</ele>
        <time>2022-10-06T14:00:46+02:00</time>
      </trkpt>
      <trkpt lat="48.62435" lon="1.70698">
        <ele>155</ele>
        <time>2022-10-06T14:01:05+02:00</time>
      </trkpt>
      <trkpt lat="48.62451" lon="1.70722">
        <ele>154</ele>
        <time>2022-10-06T14:01:23+02:00</time>
      </trkpt>
      <trkpt lat="48.62468" lon="1.70746">
        <ele>154</ele>
        <time>2022-10-06T14:01:41+02:00</time>
      </trkpt>
      <trkpt lat="48.62486" lon="1.70769">
        <ele>155</ele>
        <time>2022-10-06T14:02:01+02:00</time>
      </trkpt>
      <trkpt lat="48.62505" lon="1.70789">
        <ele>155</ele>
        <time>2022-10-06T14:02:19+02:00</time>
      </trkpt>
      <trkpt lat="48.62524" lon="1.70809">
        <ele>156</ele>
        <time>2022-10-06T14:02:39+02:00</time>
      </trkpt>
      <trkpt lat="48.62542" lon="1.70831">
        <ele>156</ele>
        <time>2022-10-06T14:02:57+02:00</time>
      </trkpt>
      <trkpt lat="48.62561" lon="1.70849">
        <ele>157</ele>
        <time>2022-10-06T14:03:15+02:00</time>
      </trkpt>
      <trkpt lat="48.62579" lon="1.70872">
        <ele>158</ele>
        <time>2022-10-06T14:03:35+02:00</time>
      </trkpt>
      <trkpt lat="48.62598" lon="1.7089">
        <ele>159</ele>
        <time>2022-10-06T14:03:54+02:00</time>
      </trkpt>
      <trkpt lat="48.62616" lon="1.70915">
        <ele>159</ele>
        <time>2022-10-06T14:04:16+02:00</time>
      </trkpt>
      <trkpt lat="48.62632" lon="1.70939">
        <ele>159</ele>
        <time>2022-10-06T14:04:41+02:00</time>
      </trkpt>
      <trkpt lat="48.62609" lon="1.70938">
        <ele>159</ele>
        <time>2022-10-06T14:05:04+02:00</time>
      </trkpt>
      <trkpt lat="48.62586" lon="1.70937">
        <ele>158</ele>
        <time>2022-10-06T14:05:24+02:00</time>
      </trkpt>
      <trkpt lat="48.62563" lon="1.70939">
        <ele>158</ele>
        <time>2022-10-06T14:05:43+02:00</time>
      </trkpt>
      <trkpt lat="48.62539" lon="1.70939">
        <ele>159</ele>
        <time>2022-10-06T14:06:01+02:00</time>
      </trkpt>
      <trkpt lat="48.62516" lon="1.70939">
        <ele>158</ele>
        <time>2022-10-06T14:06:20+02:00</time>
      </trkpt>
      <trkpt lat="48.62493" lon="1.70938">
        <ele>158</ele>
        <time>2022-10-06T14:06:37+02:00</time>
      </trkpt>
      <trkpt lat="48.6247" lon="1.70938">
        <ele>157</ele>
        <time>2022-10-06T14:06:55+02:00</time>
      </trkpt>
      <trkpt lat="48.62448" lon="1.70938">
        <ele>153</ele>
        <time>2022-10-06T14:07:14+02:00</time>
      </trkpt>
      <trkpt lat="48.62425" lon="1.70941">
        <ele>152</ele>
        <time>2022-10-06T14:07:33+02:00</time>
      </trkpt>
      <trkpt lat="48.62401" lon="1.70942">
        <ele>149</ele>
        <time>2022-10-06T14:07:51+02:00</time>
      </trkpt>
      <trkpt lat="48.62377" lon="1.70943">
        <ele>149</ele>
        <time>2022-10-06T14:08:09+02:00</time>
      </trkpt>
      <trkpt lat="48.62354" lon="1.70942">
        <ele>147</ele>
        <time>2022-10-06T14:08:28+02:00</time>
      </trkpt>
      <trkpt lat="48.62331" lon="1.70937">
        <ele>146</ele>
        <time>2022-10-06T14:08:47+02:00</time>
      </trkpt>
      <trkpt lat="48.62308" lon="1.70928">
        <ele>143</ele>
        <time>2022-10-06T14:09:06+02:00</time>
      </trkpt>
      <trkpt lat="48.62285" lon="1.70919">
        <ele>142</ele>
        <time>2022-10-06T14:09:25+02:00</time>
      </trkpt>
      <trkpt lat="48.62263" lon="1.70907">
        <ele>140</ele>
        <time>2022-10-06T14:09:43+02:00</time>
      </trkpt>
      <trkpt lat="48.62241" lon="1.70898">
        <ele>139</ele>
        <time>2022-10-06T14:10:01+02:00</time>
      </trkpt>
      <trkpt lat="48.62219" lon="1.70888">
        <ele>140</ele>
        <time>2022-10-06T14:10:20+02:00</time>
      </trkpt>
      <trkpt lat="48.62197" lon="1.70878">
        <ele>140</ele>
        <time>2022-10-06T14:10:41+02:00</time>
      </trkpt>
      <trkpt lat="48.62175" lon="1.70867">
        <ele>139</ele>
        <time>2022-10-06T14:11:03+02:00</time>
      </trkpt>
      <trkpt lat="48.62152" lon="1.7086">
        <ele>138</ele>
        <time>2022-10-06T14:11:23+02:00</time>
      </trkpt>
      <trkpt lat="48.6213" lon="1.70848">
        <ele>137</ele>
        <time>2022-10-06T14:11:42+02:00</time>
      </trkpt>
      <trkpt lat="48.62108" lon="1.70838">
        <ele>136</ele>
        <time>2022-10-06T14:12:00+02:00</time>
      </trkpt>
      <trkpt lat="48.62085" lon="1.70829">
        <ele>135</ele>
        <time>2022-10-06T14:12:21+02:00</time>
      </trkpt>
      <trkpt lat="48.62063" lon="1.70822">
        <ele>133</ele>
        <time>2022-10-06T14:12:39+02:00</time>
      </trkpt>
      <trkpt lat="48.6204" lon="1.70819">
        <ele>133</ele>
        <time>2022-10-06T14:13:00+02:00</time>
      </trkpt>
      <trkpt lat="48.62016" lon="1.70812">
        <ele>133</ele>
        <time>2022-10-06T14:13:19+02:00</time>
      </trkpt>
      <trkpt lat="48.61993" lon="1.70805">
        <ele>133</ele>
        <time>2022-10-06T14:13:38+02:00</time>
      </trkpt>
      <trkpt lat="48.61992" lon="1.70807">
        <ele>132</ele>
        <time>2022-10-06T14:29:02+02:00</time>
      </trkpt>
      <trkpt lat="48.62006" lon="1.70833">
        <ele>130</ele>
        <time>2022-10-06T14:29:23+02:00</time>
      </trkpt>
      <trkpt lat="48.62024" lon="1.70854">
        <ele>133</ele>
        <time>2022-10-06T14:29:45+02:00</time>
      </trkpt>
      <trkpt lat="48.62045" lon="1.70869">
        <ele>134</ele>
        <time>2022-10-06T14:30:06+02:00</time>
      </trkpt>
      <trkpt lat="48.62064" lon="1.70889">
        <ele>134</ele>
        <time>2022-10-06T14:30:25+02:00</time>
      </trkpt>
      <trkpt lat="48.62081" lon="1.70913">
        <ele>135</ele>
        <time>2022-10-06T14:30:46+02:00</time>
      </trkpt>
      <trkpt lat="48.62096" lon="1.70941">
        <ele>135</ele>
        <time>2022-10-06T14:31:05+02:00</time>
      </trkpt>
      <trkpt lat="48.62109" lon="1.7097">
        <ele>136</ele>
        <time>2022-10-06T14:31:26+02:00</time>
      </trkpt>
      <trkpt lat="48.62113" lon="1.71005">
        <ele>136</ele>
        <time>2022-10-06T14:31:47+02:00</time>
      </trkpt>
      <trkpt lat="48.62117" lon="1.71038">
        <ele>138</ele>
        <time>2022-10-06T14:32:06+02:00</time>
      </trkpt>
      <trkpt lat="48.62126" lon="1.71071">
        <ele>139</ele>
        <time>2022-10-06T14:32:28+02:00</time>
      </trkpt>
      <trkpt lat="48.62137" lon="1.71103">
        <ele>139</ele>
        <time>2022-10-06T14:32:50+02:00</time>
      </trkpt>
      <trkpt lat="48.62147" lon="1.71134">
        <ele>139</ele>
        <time>2022-10-06T14:33:11+02:00</time>
      </trkpt>
      <trkpt lat="48.62159" lon="1.71166">
        <ele>137</ele>
        <time>2022-10-06T14:33:33+02:00</time>
      </trkpt>
      <trkpt lat="48.62169" lon="1.71197">
        <ele>139</ele>
        <time>2022-10-06T14:33:53+02:00</time>
      </trkpt>
      <trkpt lat="48.62181" lon="1.71226">
        <ele>138</ele>
        <time>2022-10-06T14:34:24+02:00</time>
      </trkpt>
      <trkpt lat="48.62192" lon="1.71256">
        <ele>138</ele>
        <time>2022-10-06T14:35:07+02:00</time>
      </trkpt>
      <trkpt lat="48.62208" lon="1.71281">
        <ele>139</ele>
        <time>2022-10-06T14:35:29+02:00</time>
      </trkpt>
      <trkpt lat="48.62221" lon="1.71309">
        <ele>139</ele>
        <time>2022-10-06T14:35:51+02:00</time>
      </trkpt>
      <trkpt lat="48.62233" lon="1.71341">
        <ele>139</ele>
        <time>2022-10-06T14:36:14+02:00</time>
      </trkpt>
      <trkpt lat="48.62246" lon="1.71372">
        <ele>139</ele>
        <time>2022-10-06T14:36:38+02:00</time>
      </trkpt>
      <trkpt lat="48.62257" lon="1.71403">
        <ele>141</ele>
        <time>2022-10-06T14:37:00+02:00</time>
      </trkpt>
      <trkpt lat="48.6227" lon="1.71433">
        <ele>143</ele>
        <time>2022-10-06T14:37:21+02:00</time>
      </trkpt>
      <trkpt lat="48.62279" lon="1.71465">
        <ele>144</ele>
        <time>2022-10-06T14:37:44+02:00</time>
      </trkpt>
      <trkpt lat="48.62297" lon="1.71488">
        <ele>145</ele>
        <time>2022-10-06T14:38:06+02:00</time>
      </trkpt>
      <trkpt lat="48.62316" lon="1.71507">
        <ele>146</ele>
        <time>2022-10-06T14:38:26+02:00</time>
      </trkpt>
      <trkpt lat="48.62333" lon="1.71529">
        <ele>145</ele>
        <time>2022-10-06T14:38:48+02:00</time>
      </trkpt>
      <trkpt lat="48.62349" lon="1.71554">
        <ele>147</ele>
        <time>2022-10-06T14:39:08+02:00</time>
      </trkpt>
      <trkpt lat="48.62355" lon="1.71589">
        <ele>146</ele>
        <time>2022-10-06T14:39:30+02:00</time>
      </trkpt>
      <trkpt lat="48.62359" lon="1.71623">
        <ele>147</ele>
        <time>2022-10-06T14:39:51+02:00</time>
      </trkpt>
      <trkpt lat="48.62363" lon="1.71658">
        <ele>148</ele>
        <time>2022-10-06T14:40:14+02:00</time>
      </trkpt>
      <trkpt lat="48.6237" lon="1.71691">
        <ele>148</ele>
        <time>2022-10-06T14:40:35+02:00</time>
      </trkpt>
      <trkpt lat="48.62374" lon="1.71725">
        <ele>149</ele>
        <time>2022-10-06T14:41:00+02:00</time>
      </trkpt>
      <trkpt lat="48.62369" lon="1.7176">
        <ele>148</ele>
        <time>2022-10-06T14:41:24+02:00</time>
      </trkpt>
      <trkpt lat="48.6237" lon="1.71794">
        <ele>149</ele>
        <time>2022-10-06T14:41:45+02:00</time>
      </trkpt>
      <trkpt lat="48.62375" lon="1.7183">
        <ele>149</ele>
        <time>2022-10-06T14:42:07+02:00</time>
      </trkpt>
      <trkpt lat="48.62373" lon="1.71865">
        <ele>150</ele>
        <time>2022-10-06T14:42:27+02:00</time>
      </trkpt>
      <trkpt lat="48.6236" lon="1.71892">
        <ele>151</ele>
        <time>2022-10-06T14:42:47+02:00</time>
      </trkpt>
      <trkpt lat="48.62371" lon="1.71923">
        <ele>150</ele>
        <time>2022-10-06T14:43:06+02:00</time>
      </trkpt>
      <trkpt lat="48.62384" lon="1.71952">
        <ele>152</ele>
        <time>2022-10-06T14:43:27+02:00</time>
      </trkpt>
      <trkpt lat="48.62396" lon="1.71981">
        <ele>153</ele>
        <time>2022-10-06T14:43:49+02:00</time>
      </trkpt>
      <trkpt lat="48.62409" lon="1.72011">
        <ele>153</ele>
        <time>2022-10-06T14:44:10+02:00</time>
      </trkpt>
      <trkpt lat="48.62418" lon="1.72042">
        <ele>151</ele>
        <time>2022-10-06T14:44:29+02:00</time>
      </trkpt>
      <trkpt lat="48.62424" lon="1.72075">
        <ele>150</ele>
        <time>2022-10-06T14:44:50+02:00</time>
      </trkpt>
      <trkpt lat="48.62405" lon="1.72094">
        <ele>149</ele>
        <time>2022-10-06T14:45:19+02:00</time>
      </trkpt>
      <trkpt lat="48.62383" lon="1.72105">
        <ele>152</ele>
        <time>2022-10-06T14:46:00+02:00</time>
      </trkpt>
      <trkpt lat="48.62361" lon="1.72115">
        <ele>156</ele>
        <time>2022-10-06T14:46:26+02:00</time>
      </trkpt>
      <trkpt lat="48.62339" lon="1.72128">
        <ele>157</ele>
        <time>2022-10-06T14:46:56+02:00</time>
      </trkpt>
      <trkpt lat="48.62324" lon="1.72103">
        <ele>156</ele>
        <time>2022-10-06T14:49:54+02:00</time>
      </trkpt>
      <trkpt lat="48.62313" lon="1.72072">
        <ele>160</ele>
        <time>2022-10-06T14:50:23+02:00</time>
      </trkpt>
      <trkpt lat="48.62301" lon="1.72043">
        <ele>161</ele>
        <time>2022-10-06T14:50:43+02:00</time>
      </trkpt>
      <trkpt lat="48.62287" lon="1.72015">
        <ele>162</ele>
        <time>2022-10-06T14:51:04+02:00</time>
      </trkpt>
      <trkpt lat="48.62268" lon="1.71997">
        <ele>163</ele>
        <time>2022-10-06T14:51:27+02:00</time>
      </trkpt>
      <trkpt lat="48.62247" lon="1.71982">
        <ele>163</ele>
        <time>2022-10-06T14:51:50+02:00</time>
      </trkpt>
      <trkpt lat="48.62224" lon="1.71974">
        <ele>163</ele>
        <time>2022-10-06T14:52:12+02:00</time>
      </trkpt>
      <trkpt lat="48.62201" lon="1.71972">
        <ele>164</ele>
        <time>2022-10-06T14:52:34+02:00</time>
      </trkpt>
      <trkpt lat="48.62179" lon="1.71977">
        <ele>165</ele>
        <time>2022-10-06T14:52:54+02:00</time>
      </trkpt>
      <trkpt lat="48.62157" lon="1.71987">
        <ele>164</ele>
        <time>2022-10-06T14:53:18+02:00</time>
      </trkpt>
      <trkpt lat="48.62135" lon="1.71998">
        <ele>165</ele>
        <time>2022-10-06T14:53:38+02:00</time>
      </trkpt>
      <trkpt lat="48.62113" lon="1.72009">
        <ele>165</ele>
        <time>2022-10-06T14:53:58+02:00</time>
      </trkpt>
      <trkpt lat="48.62091" lon="1.7202">
        <ele>163</ele>
        <time>2022-10-06T14:54:20+02:00</time>
      </trkpt>
      <trkpt lat="48.62068" lon="1.72024">
        <ele>163</ele>
        <time>2022-10-06T14:54:39+02:00</time>
      </trkpt>
      <trkpt lat="48.62048" lon="1.72038">
        <ele>162</ele>
        <time>2022-10-06T14:55:04+02:00</time>
      </trkpt>
      <trkpt lat="48.62025" lon="1.72038">
        <ele>161</ele>
        <time>2022-10-06T14:55:32+02:00</time>
      </trkpt>
      <trkpt lat="48.62002" lon="1.72037">
        <ele>162</ele>
        <time>2022-10-06T14:57:30+02:00</time>
      </trkpt>
      <trkpt lat="48.61978" lon="1.72036">
        <ele>161</ele>
        <time>2022-10-06T14:57:52+02:00</time>
      </trkpt>
      <trkpt lat="48.61956" lon="1.72028">
        <ele>160</ele>
        <time>2022-10-06T14:58:15+02:00</time>
      </trkpt>
      <trkpt lat="48.61934" lon="1.72017">
        <ele>161</ele>
        <time>2022-10-06T14:58:36+02:00</time>
      </trkpt>
      <trkpt lat="48.61912" lon="1.72006">
        <ele>160</ele>
        <time>2022-10-06T14:58:58+02:00</time>
      </trkpt>
      <trkpt lat="48.61889" lon="1.71998">
        <ele>161</ele>
        <time>2022-10-06T14:59:19+02:00</time>
      </trkpt>
      <trkpt lat="48.61866" lon="1.7199">
        <ele>161</ele>
        <time>2022-10-06T14:59:39+02:00</time>
      </trkpt>
      <trkpt lat="48.61843" lon="1.71983">
        <ele>161</ele>
        <time>2022-10-06T15:00:00+02:00</time>
      </trkpt>
      <trkpt lat="48.6182" lon="1.71983">
        <ele>160</ele>
        <time>2022-10-06T15:00:22+02:00</time>
      </trkpt>
      <trkpt lat="48.61798" lon="1.71979">
        <ele>157</ele>
        <time>2022-10-06T15:00:44+02:00</time>
      </trkpt>
      <trkpt lat="48.61774" lon="1.71979">
        <ele>155</ele>
        <time>2022-10-06T15:01:06+02:00</time>
      </trkpt>
      <trkpt lat="48.61751" lon="1.71973">
        <ele>152</ele>
        <time>2022-10-06T15:01:29+02:00</time>
      </trkpt>
      <trkpt lat="48.61728" lon="1.71966">
        <ele>147</ele>
        <time>2022-10-06T15:02:01+02:00</time>
      </trkpt>
      <trkpt lat="48.61707" lon="1.71954">
        <ele>143</ele>
        <time>2022-10-06T15:02:37+02:00</time>
      </trkpt>
      <trkpt lat="48.61684" lon="1.71951">
        <ele>140</ele>
        <time>2022-10-06T15:03:02+02:00</time>
      </trkpt>
      <trkpt lat="48.61661" lon="1.71954">
        <ele>137</ele>
        <time>2022-10-06T15:03:31+02:00</time>
      </trkpt>
      <trkpt lat="48.61639" lon="1.71959">
        <ele>135</ele>
        <time>2022-10-06T15:03:55+02:00</time>
      </trkpt>
      <trkpt lat="48.61619" lon="1.71943">
        <ele>130</ele>
        <time>2022-10-06T15:04:18+02:00</time>
      </trkpt>
      <trkpt lat="48.61617" lon="1.71909">
        <ele>124</ele>
        <time>2022-10-06T15:04:46+02:00</time>
      </trkpt>
      <trkpt lat="48.61617" lon="1.71873">
        <ele>123</ele>
        <time>2022-10-06T15:05:07+02:00</time>
      </trkpt>
      <trkpt lat="48.61615" lon="1.71839">
        <ele>121</ele>
        <time>2022-10-06T15:05:27+02:00</time>
      </trkpt>
      <trkpt lat="48.61595" lon="1.71823">
        <ele>121</ele>
        <time>2022-10-06T15:05:49+02:00</time>
      </trkpt>
      <trkpt lat="48.61574" lon="1.71807">
        <ele>121</ele>
        <time>2022-10-06T15:06:09+02:00</time>
      </trkpt>
      <trkpt lat="48.61554" lon="1.71789">
        <ele>120</ele>
        <time>2022-10-06T15:06:29+02:00</time>
      </trkpt>
      <trkpt lat="48.61532" lon="1.7178">
        <ele>122</ele>
        <time>2022-10-06T15:06:50+02:00</time>
      </trkpt>
      <trkpt lat="48.61511" lon="1.7177">
        <ele>121</ele>
        <time>2022-10-06T15:07:10+02:00</time>
      </trkpt>
      <trkpt lat="48.61489" lon="1.71758">
        <ele>121</ele>
        <time>2022-10-06T15:07:31+02:00</time>
      </trkpt>
      <trkpt lat="48.61469" lon="1.7174">
        <ele>120</ele>
        <time>2022-10-06T15:07:54+02:00</time>
      </trkpt>
      <trkpt lat="48.61452" lon="1.71719">
        <ele>120</ele>
        <time>2022-10-06T15:08:15+02:00</time>
      </trkpt>
      <trkpt lat="48.6143" lon="1.71711">
        <ele>122</ele>
        <time>2022-10-06T15:08:35+02:00</time>
      </trkpt>
      <trkpt lat="48.61407" lon="1.71709">
        <ele>124</ele>
        <time>2022-10-06T15:08:56+02:00</time>
      </trkpt>
      <trkpt lat="48.61384" lon="1.71701">
        <ele>124</ele>
        <time>2022-10-06T15:09:21+02:00</time>
      </trkpt>
      <trkpt lat="48.61362" lon="1.71708">
        <ele>125</ele>
        <time>2022-10-06T15:10:06+02:00</time>
      </trkpt>
      <trkpt lat="48.61355" lon="1.71739">
        <ele>125</ele>
        <time>2022-10-06T15:10:36+02:00</time>
      </trkpt>
      <trkpt lat="48.61354" lon="1.71774">
        <ele>126</ele>
        <time>2022-10-06T15:11:01+02:00</time>
      </trkpt>
      <trkpt lat="48.61355" lon="1.7181">
        <ele>126</ele>
        <time>2022-10-06T15:11:48+02:00</time>
      </trkpt>
      <trkpt lat="48.61355" lon="1.71845">
        <ele>125</ele>
        <time>2022-10-06T15:12:31+02:00</time>
      </trkpt>
      <trkpt lat="48.61358" lon="1.7188">
        <ele>125</ele>
        <time>2022-10-06T15:13:29+02:00</time>
      </trkpt>
      <trkpt lat="48.6136" lon="1.71914">
        <ele>125</ele>
        <time>2022-10-06T15:13:54+02:00</time>
      </trkpt>
      <trkpt lat="48.61361" lon="1.71948">
        <ele>125</ele>
        <time>2022-10-06T15:14:17+02:00</time>
      </trkpt>
      <trkpt lat="48.61362" lon="1.71984">
        <ele>124</ele>
        <time>2022-10-06T15:14:40+02:00</time>
      </trkpt>
      <trkpt lat="48.61365" lon="1.72018">
        <ele>125</ele>
        <time>2022-10-06T15:15:05+02:00</time>
      </trkpt>
      <trkpt lat="48.61363" lon="1.72053">
        <ele>124</ele>
        <time>2022-10-06T15:15:29+02:00</time>
      </trkpt>
      <trkpt lat="48.61362" lon="1.72087">
        <ele>126</ele>
        <time>2022-10-06T15:15:51+02:00</time>
      </trkpt>
      <trkpt lat="48.61364" lon="1.72121">
        <ele>127</ele>
        <time>2022-10-06T15:16:17+02:00</time>
      </trkpt>
      <trkpt lat="48.61366" lon="1.72155">
        <ele>125</ele>
        <time>2022-10-06T15:16:37+02:00</time>
      </trkpt>
      <trkpt lat="48.61367" lon="1.72191">
        <ele>126</ele>
        <time>2022-10-06T15:17:01+02:00</time>
      </trkpt>
      <trkpt lat="48.61369" lon="1.72226">
        <ele>124</ele>
        <time>2022-10-06T15:17:27+02:00</time>
      </trkpt>
      <trkpt lat="48.61369" lon="1.7226">
        <ele>126</ele>
        <time>2022-10-06T15:17:45+02:00</time>
      </trkpt>
      <trkpt lat="48.61374" lon="1.72294">
        <ele>126</ele>
        <time>2022-10-06T15:18:06+02:00</time>
      </trkpt>
      <trkpt lat="48.61386" lon="1.72324">
        <ele>123</ele>
        <time>2022-10-06T15:18:29+02:00</time>
      </trkpt>
      <trkpt lat="48.61401" lon="1.72351">
        <ele>124</ele>
        <time>2022-10-06T15:18:54+02:00</time>
      </trkpt>
      <trkpt lat="48.614" lon="1.72385">
        <ele>127</ele>
        <time>2022-10-06T15:19:22+02:00</time>
      </trkpt>
      <trkpt lat="48.61406" lon="1.72418">
        <ele>125</ele>
        <time>2022-10-06T15:19:45+02:00</time>
      </trkpt>
      <trkpt lat="48.61415" lon="1.72449">
        <ele>126</ele>
        <time>2022-10-06T15:20:07+02:00</time>
      </trkpt>
      <trkpt lat="48.6142" lon="1.72484">
        <ele>125</ele>
        <time>2022-10-06T15:20:31+02:00</time>
      </trkpt>
      <trkpt lat="48.61428" lon="1.72515">
        <ele>125</ele>
        <time>2022-10-06T15:20:55+02:00</time>
      </trkpt>
      <trkpt lat="48.6144" lon="1.72545">
        <ele>127</ele>
        <time>2022-10-06T15:21:19+02:00</time>
      </trkpt>
      <trkpt lat="48.61454" lon="1.72573">
        <ele>125</ele>
        <time>2022-10-06T15:21:43+02:00</time>
      </trkpt>
      <trkpt lat="48.61452" lon="1.72607">
        <ele>125</ele>
        <time>2022-10-06T15:22:09+02:00</time>
      </trkpt>
      <trkpt lat="48.6146" lon="1.72639">
        <ele>126</ele>
        <time>2022-10-06T15:22:36+02:00</time>
      </trkpt>
      <trkpt lat="48.61473" lon="1.72667">
        <ele>126</ele>
        <time>2022-10-06T15:22:58+02:00</time>
      </trkpt>
      <trkpt lat="48.61482" lon="1.72701">
        <ele>125</ele>
        <time>2022-10-06T15:23:21+02:00</time>
      </trkpt>
      <trkpt lat="48.61488" lon="1.72734">
        <ele>126</ele>
        <time>2022-10-06T15:23:47+02:00</time>
      </trkpt>
      <trkpt lat="48.615" lon="1.72765">
        <ele>125</ele>
        <time>2022-10-06T15:24:08+02:00</time>
      </trkpt>
      <trkpt lat="48.61516" lon="1.72791">
        <ele>124</ele>
        <time>2022-10-06T15:24:32+02:00</time>
      </trkpt>
      <trkpt lat="48.61528" lon="1.7282">
        <ele>125</ele>
        <time>2022-10-06T15:24:56+02:00</time>
      </trkpt>
      <trkpt lat="48.61534" lon="1.72854">
        <ele>124</ele>
        <time>2022-10-06T15:25:19+02:00</time>
      </trkpt>
      <trkpt lat="48.6154" lon="1.72887">
        <ele>125</ele>
        <time>2022-10-06T15:25:42+02:00</time>
      </trkpt>
      <trkpt lat="48.61547" lon="1.72921">
        <ele>124</ele>
        <time>2022-10-06T15:26:05+02:00</time>
      </trkpt>
      <trkpt lat="48.61553" lon="1.72955">
        <ele>126</ele>
        <time>2022-10-06T15:26:28+02:00</time>
      </trkpt>
      <trkpt lat="48.6156" lon="1.72988">
        <ele>127</ele>
        <time>2022-10-06T15:26:49+02:00</time>
      </trkpt>
      <trkpt lat="48.61569" lon="1.7302">
        <ele>126</ele>
        <time>2022-10-06T15:27:10+02:00</time>
      </trkpt>
      <trkpt lat="48.61576" lon="1.73054">
        <ele>129</ele>
        <time>2022-10-06T15:27:31+02:00</time>
      </trkpt>
      <trkpt lat="48.61586" lon="1.73084">
        <ele>130</ele>
        <time>2022-10-06T15:27:54+02:00</time>
      </trkpt>
      <trkpt lat="48.61593" lon="1.73118">
        <ele>131</ele>
        <time>2022-10-06T15:28:20+02:00</time>
      </trkpt>
      <trkpt lat="48.61601" lon="1.73149">
        <ele>132</ele>
        <time>2022-10-06T15:28:41+02:00</time>
      </trkpt>
      <trkpt lat="48.61606" lon="1.73184">
        <ele>133</ele>
        <time>2022-10-06T15:29:04+02:00</time>
      </trkpt>
      <trkpt lat="48.61615" lon="1.73216">
        <ele>134</ele>
        <time>2022-10-06T15:29:27+02:00</time>
      </trkpt>
      <trkpt lat="48.61623" lon="1.73249">
        <ele>136</ele>
        <time>2022-10-06T15:29:51+02:00</time>
      </trkpt>
      <trkpt lat="48.61631" lon="1.73281">
        <ele>137</ele>
        <time>2022-10-06T15:30:15+02:00</time>
      </trkpt>
      <trkpt lat="48.61645" lon="1.73308">
        <ele>137</ele>
        <time>2022-10-06T15:30:37+02:00</time>
      </trkpt>
      <trkpt lat="48.61656" lon="1.73338">
        <ele>134</ele>
        <time>2022-10-06T15:31:00+02:00</time>
      </trkpt>
      <trkpt lat="48.61671" lon="1.73364">
        <ele>131</ele>
        <time>2022-10-06T15:31:22+02:00</time>
      </trkpt>
      <trkpt lat="48.61684" lon="1.73393">
        <ele>130</ele>
        <time>2022-10-06T15:32:37+02:00</time>
      </trkpt>
      <trkpt lat="48.61693" lon="1.73426">
        <ele>128</ele>
        <time>2022-10-06T15:33:22+02:00</time>
      </trkpt>
      <trkpt lat="48.61705" lon="1.73454">
        <ele>127</ele>
        <time>2022-10-06T15:33:44+02:00</time>
      </trkpt>
      <trkpt lat="48.61713" lon="1.73486">
        <ele>124</ele>
        <time>2022-10-06T15:34:08+02:00</time>
      </trkpt>
      <trkpt lat="48.61717" lon="1.7352">
        <ele>125</ele>
        <time>2022-10-06T15:34:30+02:00</time>
      </trkpt>
      <trkpt lat="48.61735" lon="1.73542">
        <ele>127</ele>
        <time>2022-10-06T15:34:54+02:00</time>
      </trkpt>
      <trkpt lat="48.61755" lon="1.73559">
        <ele>126</ele>
        <time>2022-10-06T15:35:13+02:00</time>
      </trkpt>
      <trkpt lat="48.61763" lon="1.73592">
        <ele>126</ele>
        <time>2022-10-06T15:35:35+02:00</time>
      </trkpt>
      <trkpt lat="48.61768" lon="1.73625">
        <ele>127</ele>
        <time>2022-10-06T15:35:57+02:00</time>
      </trkpt>
      <trkpt lat="48.61779" lon="1.73657">
        <ele>128</ele>
        <time>2022-10-06T15:36:17+02:00</time>
      </trkpt>
      <trkpt lat="48.61792" lon="1.73687">
        <ele>129</ele>
        <time>2022-10-06T15:36:35+02:00</time>
      </trkpt>
      <trkpt lat="48.61808" lon="1.73711">
        <ele>126</ele>
        <time>2022-10-06T15:37:01+02:00</time>
      </trkpt>
      <trkpt lat="48.61825" lon="1.73733">
        <ele>125</ele>
        <time>2022-10-06T15:37:20+02:00</time>
      </trkpt>
      <trkpt lat="48.61843" lon="1.73757">
        <ele>125</ele>
        <time>2022-10-06T15:37:46+02:00</time>
      </trkpt>
      <trkpt lat="48.61863" lon="1.73773">
        <ele>125</ele>
        <time>2022-10-06T15:38:15+02:00</time>
      </trkpt>
      <trkpt lat="48.61882" lon="1.73793">
        <ele>123</ele>
        <time>2022-10-06T15:43:41+02:00</time>
      </trkpt>
      <trkpt lat="48.619" lon="1.73813">
        <ele>125</ele>
        <time>2022-10-06T15:44:18+02:00</time>
      </trkpt>
      <trkpt lat="48.61915" lon="1.73839">
        <ele>128</ele>
        <time>2022-10-06T15:44:50+02:00</time>
      </trkpt>
      <trkpt lat="48.61929" lon="1.73866">
        <ele>129</ele>
        <time>2022-10-06T15:45:15+02:00</time>
      </trkpt>
      <trkpt lat="48.6195" lon="1.73883">
        <ele>129</ele>
        <time>2022-10-06T15:45:42+02:00</time>
      </trkpt>
      <trkpt lat="48.61972" lon="1.73891">
        <ele>127</ele>
        <time>2022-10-06T15:46:07+02:00</time>
      </trkpt>
      <trkpt lat="48.61995" lon="1.73895">
        <ele>126</ele>
        <time>2022-10-06T15:46:27+02:00</time>
      </trkpt>
      <trkpt lat="48.62017" lon="1.73903">
        <ele>127</ele>
        <time>2022-10-06T15:47:46+02:00</time>
      </trkpt>
      <trkpt lat="48.62036" lon="1.73922">
        <ele>126</ele>
        <time>2022-10-06T15:48:06+02:00</time>
      </trkpt>
      <trkpt lat="48.62055" lon="1.7394">
        <ele>128</ele>
        <time>2022-10-06T15:48:28+02:00</time>
      </trkpt>
      <trkpt lat="48.62073" lon="1.73964">
        <ele>129</ele>
        <time>2022-10-06T15:48:55+02:00</time>
      </trkpt>
      <trkpt lat="48.62092" lon="1.73984">
        <ele>128</ele>
        <time>2022-10-06T15:49:17+02:00</time>
      </trkpt>
      <trkpt lat="48.62111" lon="1.74004">
        <ele>129</ele>
        <time>2022-10-06T15:49:37+02:00</time>
      </trkpt>
      <trkpt lat="48.6213" lon="1.74024">
        <ele>127</ele>
        <time>2022-10-06T15:49:59+02:00</time>
      </trkpt>
      <trkpt lat="48.62152" lon="1.74034">
        <ele>126</ele>
        <time>2022-10-06T15:50:22+02:00</time>
      </trkpt>
      <trkpt lat="48.62174" lon="1.74044">
        <ele>126</ele>
        <time>2022-10-06T15:50:43+02:00</time>
      </trkpt>
      <trkpt lat="48.62196" lon="1.74055">
        <ele>125</ele>
        <time>2022-10-06T15:51:06+02:00</time>
      </trkpt>
      <trkpt lat="48.62218" lon="1.74062">
        <ele>124</ele>
        <time>2022-10-06T15:51:28+02:00</time>
      </trkpt>
      <trkpt lat="48.62241" lon="1.74073">
        <ele>127</ele>
        <time>2022-10-06T15:51:49+02:00</time>
      </trkpt>
      <trkpt lat="48.62263" lon="1.74081">
        <ele>127</ele>
        <time>2022-10-06T15:52:07+02:00</time>
      </trkpt>
      <trkpt lat="48.62285" lon="1.74092">
        <ele>127</ele>
        <time>2022-10-06T15:52:32+02:00</time>
      </trkpt>
      <trkpt lat="48.62306" lon="1.74103">
        <ele>128</ele>
        <time>2022-10-06T15:53:02+02:00</time>
      </trkpt>
      <trkpt lat="48.62327" lon="1.74117">
        <ele>127</ele>
        <time>2022-10-06T15:53:21+02:00</time>
      </trkpt>
      <trkpt lat="48.62345" lon="1.74139">
        <ele>126</ele>
        <time>2022-10-06T15:53:41+02:00</time>
      </trkpt>
      <trkpt lat="48.62357" lon="1.74168">
        <ele>125</ele>
        <time>2022-10-06T15:53:59+02:00</time>
      </trkpt>
      <trkpt lat="48.62368" lon="1.74199">
        <ele>125</ele>
        <time>2022-10-06T15:54:18+02:00</time>
      </trkpt>
      <trkpt lat="48.62366" lon="1.74235">
        <ele>125</ele>
        <time>2022-10-06T15:54:40+02:00</time>
      </trkpt>
      <trkpt lat="48.62369" lon="1.7427">
        <ele>126</ele>
        <time>2022-10-06T15:55:00+02:00</time>
      </trkpt>
      <trkpt lat="48.62377" lon="1.74303">
        <ele>126</ele>
        <time>2022-10-06T15:55:20+02:00</time>
      </trkpt>
      <trkpt lat="48.62386" lon="1.74335">
        <ele>125</ele>
        <time>2022-10-06T15:55:40+02:00</time>
      </trkpt>
      <trkpt lat="48.62395" lon="1.74368">
        <ele>126</ele>
        <time>2022-10-06T15:55:58+02:00</time>
      </trkpt>
      <trkpt lat="48.62403" lon="1.74399">
        <ele>126</ele>
        <time>2022-10-06T15:56:18+02:00</time>
      </trkpt>
      <trkpt lat="48.62409" lon="1.74433">
        <ele>128</ele>
        <time>2022-10-06T15:56:38+02:00</time>
      </trkpt>
      <trkpt lat="48.62408" lon="1.7447">
        <ele>128</ele>
        <time>2022-10-06T15:57:01+02:00</time>
      </trkpt>
      <trkpt lat="48.62416" lon="1.74501">
        <ele>129</ele>
        <time>2022-10-06T15:57:19+02:00</time>
      </trkpt>
      <trkpt lat="48.6243" lon="1.74528">
        <ele>130</ele>
        <time>2022-10-06T15:57:37+02:00</time>
      </trkpt>
      <trkpt lat="48.62439" lon="1.7456">
        <ele>129</ele>
        <time>2022-10-06T15:57:57+02:00</time>
      </trkpt>
      <trkpt lat="48.62455" lon="1.74584">
        <ele>130</ele>
        <time>2022-10-06T15:58:16+02:00</time>
      </trkpt>
      <trkpt lat="48.62468" lon="1.74613">
        <ele>130</ele>
        <time>2022-10-06T15:58:36+02:00</time>
      </trkpt>
      <trkpt lat="48.62481" lon="1.74642">
        <ele>127</ele>
        <time>2022-10-06T15:59:08+02:00</time>
      </trkpt>
      <trkpt lat="48.62491" lon="1.74673">
        <ele>128</ele>
        <time>2022-10-06T15:59:29+02:00</time>
      </trkpt>
      <trkpt lat="48.62506" lon="1.747">
        <ele>126</ele>
        <time>2022-10-06T15:59:49+02:00</time>
      </trkpt>
      <trkpt lat="48.62522" lon="1.74724">
        <ele>127</ele>
        <time>2022-10-06T16:00:09+02:00</time>
      </trkpt>
      <trkpt lat="48.62535" lon="1.74752">
        <ele>128</ele>
        <time>2022-10-06T16:00:30+02:00</time>
      </trkpt>
      <trkpt lat="48.6254" lon="1.74785">
        <ele>130</ele>
        <time>2022-10-06T16:00:53+02:00</time>
      </trkpt>
      <trkpt lat="48.62537" lon="1.74819">
        <ele>131</ele>
        <time>2022-10-06T16:01:13+02:00</time>
      </trkpt>
      <trkpt lat="48.62536" lon="1.74854">
        <ele>132</ele>
        <time>2022-10-06T16:01:31+02:00</time>
      </trkpt>
      <trkpt lat="48.62542" lon="1.74888">
        <ele>133</ele>
        <time>2022-10-06T16:01:51+02:00</time>
      </trkpt>
      <trkpt lat="48.62555" lon="1.74918">
        <ele>132</ele>
        <time>2022-10-06T16:02:14+02:00</time>
      </trkpt>
      <trkpt lat="48.62572" lon="1.74942">
        <ele>131</ele>
        <time>2022-10-06T16:02:35+02:00</time>
      </trkpt>
      <trkpt lat="48.62589" lon="1.74964">
        <ele>131</ele>
        <time>2022-10-06T16:02:55+02:00</time>
      </trkpt>
      <trkpt lat="48.62606" lon="1.74988">
        <ele>130</ele>
        <time>2022-10-06T16:03:16+02:00</time>
      </trkpt>
      <trkpt lat="48.62621" lon="1.75013">
        <ele>129</ele>
        <time>2022-10-06T16:03:35+02:00</time>
      </trkpt>
      <trkpt lat="48.62634" lon="1.75042">
        <ele>129</ele>
        <time>2022-10-06T16:03:57+02:00</time>
      </trkpt>
      <trkpt lat="48.62635" lon="1.75078">
        <ele>128</ele>
        <time>2022-10-06T16:04:39+02:00</time>
      </trkpt>
      <trkpt lat="48.62629" lon="1.75112">
        <ele>130</ele>
        <time>2022-10-06T16:05:03+02:00</time>
      </trkpt>
      <trkpt lat="48.62624" lon="1.75146">
        <ele>132</ele>
        <time>2022-10-06T16:05:26+02:00</time>
      </trkpt>
      <trkpt lat="48.62618" lon="1.75181">
        <ele>132</ele>
        <time>2022-10-06T16:05:46+02:00</time>
      </trkpt>
      <trkpt lat="48.62616" lon="1.75216">
        <ele>132</ele>
        <time>2022-10-06T16:06:08+02:00</time>
      </trkpt>
      <trkpt lat="48.62622" lon="1.75248">
        <ele>132</ele>
        <time>2022-10-06T16:06:31+02:00</time>
      </trkpt>
      <trkpt lat="48.62632" lon="1.7528">
        <ele>131</ele>
        <time>2022-10-06T16:06:54+02:00</time>
      </trkpt>
      <trkpt lat="48.62639" lon="1.75313">
        <ele>132</ele>
        <time>2022-10-06T16:07:14+02:00</time>
      </trkpt>
      <trkpt lat="48.62648" lon="1.75345">
        <ele>132</ele>
        <time>2022-10-06T16:07:38+02:00</time>
      </trkpt>
      <trkpt lat="48.62657" lon="1.75377">
        <ele>134</ele>
        <time>2022-10-06T16:08:03+02:00</time>
      </trkpt>
      <trkpt lat="48.62667" lon="1.75408">
        <ele>134</ele>
        <time>2022-10-06T16:08:26+02:00</time>
      </trkpt>
      <trkpt lat="48.62678" lon="1.75439">
        <ele>133</ele>
        <time>2022-10-06T16:08:49+02:00</time>
      </trkpt>
      <trkpt lat="48.62687" lon="1.7547">
        <ele>133</ele>
        <time>2022-10-06T16:09:11+02:00</time>
      </trkpt>
      <trkpt lat="48.62695" lon="1.75502">
        <ele>135</ele>
        <time>2022-10-06T16:09:34+02:00</time>
      </trkpt>
      <trkpt lat="48.62696" lon="1.75538">
        <ele>137</ele>
        <time>2022-10-06T16:10:16+02:00</time>
      </trkpt>
      <trkpt lat="48.62697" lon="1.75572">
        <ele>139</ele>
        <time>2022-10-06T16:11:03+02:00</time>
      </trkpt>
      <trkpt lat="48.627" lon="1.75606">
        <ele>140</ele>
        <time>2022-10-06T16:11:38+02:00</time>
      </trkpt>
      <trkpt lat="48.62698" lon="1.75641">
        <ele>141</ele>
        <time>2022-10-06T16:12:09+02:00</time>
      </trkpt>
      <trkpt lat="48.627" lon="1.75675">
        <ele>146</ele>
        <time>2022-10-06T16:12:56+02:00</time>
      </trkpt>
      <trkpt lat="48.62701" lon="1.7571">
        <ele>148</ele>
        <time>2022-10-06T16:13:22+02:00</time>
      </trkpt>
      <trkpt lat="48.62699" lon="1.75744">
        <ele>149</ele>
        <time>2022-10-06T16:13:45+02:00</time>
      </trkpt>
      <trkpt lat="48.62698" lon="1.75779">
        <ele>147</ele>
        <time>2022-10-06T16:14:16+02:00</time>
      </trkpt>
      <trkpt lat="48.62689" lon="1.75811">
        <ele>148</ele>
        <time>2022-10-06T16:14:41+02:00</time>
      </trkpt>
      <trkpt lat="48.62679" lon="1.75843">
        <ele>151</ele>
        <time>2022-10-06T16:15:02+02:00</time>
      </trkpt>
      <trkpt lat="48.62665" lon="1.75872">
        <ele>152</ele>
        <time>2022-10-06T16:15:25+02:00</time>
      </trkpt>
      <trkpt lat="48.62654" lon="1.75902">
        <ele>149</ele>
        <time>2022-10-06T16:15:45+02:00</time>
      </trkpt>
      <trkpt lat="48.62642" lon="1.75932">
        <ele>150</ele>
        <time>2022-10-06T16:16:42+02:00</time>
      </trkpt>
      <trkpt lat="48.62631" lon="1.75964">
        <ele>148</ele>
        <time>2022-10-06T16:17:03+02:00</time>
      </trkpt>
      <trkpt lat="48.6262" lon="1.75994">
        <ele>150</ele>
        <time>2022-10-06T16:17:24+02:00</time>
      </trkpt>
      <trkpt lat="48.62603" lon="1.76016">
        <ele>151</ele>
        <time>2022-10-06T16:17:47+02:00</time>
      </trkpt>
      <trkpt lat="48.62582" lon="1.76033">
        <ele>153</ele>
        <time>2022-10-06T16:18:13+02:00</time>
      </trkpt>
      <trkpt lat="48.62557" lon="1.76035">
        <ele>153</ele>
        <time>2022-10-06T16:18:33+02:00</time>
      </trkpt>
      <trkpt lat="48.62535" lon="1.76049">
        <ele>150</ele>
        <time>2022-10-06T16:18:52+02:00</time>
      </trkpt>
      <trkpt lat="48.62527" lon="1.76082">
        <ele>147</ele>
        <time>2022-10-06T16:19:12+02:00</time>
      </trkpt>
      <trkpt lat="48.6252" lon="1.76116">
        <ele>146</ele>
        <time>2022-10-06T16:19:32+02:00</time>
      </trkpt>
      <trkpt lat="48.62513" lon="1.76149">
        <ele>148</ele>
        <time>2022-10-06T16:19:52+02:00</time>
      </trkpt>
      <trkpt lat="48.62506" lon="1.76183">
        <ele>149</ele>
        <time>2022-10-06T16:20:16+02:00</time>
      </trkpt>
      <trkpt lat="48.62504" lon="1.76218">
        <ele>149</ele>
        <time>2022-10-06T16:20:46+02:00</time>
      </trkpt>
      <trkpt lat="48.62519" lon="1.76242">
        <ele>153</ele>
        <time>2022-10-06T16:21:12+02:00</time>
      </trkpt>
      <trkpt lat="48.62535" lon="1.76267">
        <ele>154</ele>
        <time>2022-10-06T16:21:33+02:00</time>
      </trkpt>
      <trkpt lat="48.62548" lon="1.76295">
        <ele>154</ele>
        <time>2022-10-06T16:21:52+02:00</time>
      </trkpt>
      <trkpt lat="48.62569" lon="1.76316">
        <ele>155</ele>
        <time>2022-10-06T16:22:23+02:00</time>
      </trkpt>
      <trkpt lat="48.62592" lon="1.76315">
        <ele>157</ele>
        <time>2022-10-06T16:23:06+02:00</time>
      </trkpt>
      <trkpt lat="48.62614" lon="1.76322">
        <ele>156</ele>
        <time>2022-10-06T16:23:28+02:00</time>
      </trkpt>
      <trkpt lat="48.62635" lon="1.76338">
        <ele>155</ele>
        <time>2022-10-06T16:23:49+02:00</time>
      </trkpt>
      <trkpt lat="48.62653" lon="1.7636">
        <ele>155</ele>
        <time>2022-10-06T16:24:16+02:00</time>
      </trkpt>
      <trkpt lat="48.6267" lon="1.76384">
        <ele>156</ele>
        <time>2022-10-06T16:24:37+02:00</time>
      </trkpt>
      <trkpt lat="48.62681" lon="1.76414">
        <ele>155</ele>
        <time>2022-10-06T16:24:59+02:00</time>
      </trkpt>
      <trkpt lat="48.62687" lon="1.76447">
        <ele>155</ele>
        <time>2022-10-06T16:25:19+02:00</time>
      </trkpt>
      <trkpt lat="48.62692" lon="1.76481">
        <ele>154</ele>
        <time>2022-10-06T16:25:40+02:00</time>
      </trkpt>
      <trkpt lat="48.62699" lon="1.76515">
        <ele>154</ele>
        <time>2022-10-06T16:26:01+02:00</time>
      </trkpt>
      <trkpt lat="48.62707" lon="1.76548">
        <ele>155</ele>
        <time>2022-10-06T16:26:21+02:00</time>
      </trkpt>
      <trkpt lat="48.62715" lon="1.76581">
        <ele>154</ele>
        <time>2022-10-06T16:26:41+02:00</time>
      </trkpt>
      <trkpt lat="48.62721" lon="1.76614">
        <ele>154</ele>
        <time>2022-10-06T16:27:01+02:00</time>
      </trkpt>
      <trkpt lat="48.62728" lon="1.76647">
        <ele>155</ele>
        <time>2022-10-06T16:27:23+02:00</time>
      </trkpt>
      <trkpt lat="48.62741" lon="1.76677">
        <ele>156</ele>
        <time>2022-10-06T16:27:50+02:00</time>
      </trkpt>
      <trkpt lat="48.62763" lon="1.76688">
        <ele>156</ele>
        <time>2022-10-06T16:28:24+02:00</time>
      </trkpt>
      <trkpt lat="48.62785" lon="1.76696">
        <ele>156</ele>
        <time>2022-10-06T16:28:51+02:00</time>
      </trkpt>
      <trkpt lat="48.62807" lon="1.76706">
        <ele>156</ele>
        <time>2022-10-06T16:29:16+02:00</time>
      </trkpt>
      <trkpt lat="48.62828" lon="1.76718">
        <ele>156</ele>
        <time>2022-10-06T16:29:40+02:00</time>
      </trkpt>
      <trkpt lat="48.6285" lon="1.76731">
        <ele>158</ele>
        <time>2022-10-06T16:30:05+02:00</time>
      </trkpt>
      <trkpt lat="48.62872" lon="1.76739">
        <ele>159</ele>
        <time>2022-10-06T16:30:39+02:00</time>
      </trkpt>
      <trkpt lat="48.62895" lon="1.76748">
        <ele>156</ele>
        <time>2022-10-06T16:31:04+02:00</time>
      </trkpt>
      <trkpt lat="48.62917" lon="1.76759">
        <ele>156</ele>
        <time>2022-10-06T16:31:27+02:00</time>
      </trkpt>
      <trkpt lat="48.6294" lon="1.76763">
        <ele>156</ele>
        <time>2022-10-06T16:31:52+02:00</time>
      </trkpt>
      <trkpt lat="48.62962" lon="1.76757">
        <ele>156</ele>
        <time>2022-10-06T16:32:12+02:00</time>
      </trkpt>
      <trkpt lat="48.62985" lon="1.7675">
        <ele>155</ele>
        <time>2022-10-06T16:32:34+02:00</time>
      </trkpt>
      <trkpt lat="48.63007" lon="1.76741">
        <ele>155</ele>
        <time>2022-10-06T16:32:55+02:00</time>
      </trkpt>
      <trkpt lat="48.63029" lon="1.76732">
        <ele>155</ele>
        <time>2022-10-06T16:33:16+02:00</time>
      </trkpt>
      <trkpt lat="48.63051" lon="1.76725">
        <ele>154</ele>
        <time>2022-10-06T16:33:36+02:00</time>
      </trkpt>
      <trkpt lat="48.63073" lon="1.76715">
        <ele>154</ele>
        <time>2022-10-06T16:33:56+02:00</time>
      </trkpt>
      <trkpt lat="48.63096" lon="1.76705">
        <ele>156</ele>
        <time>2022-10-06T16:34:17+02:00</time>
      </trkpt>
      <trkpt lat="48.63118" lon="1.76693">
        <ele>155</ele>
        <time>2022-10-06T16:34:38+02:00</time>
      </trkpt>
      <trkpt lat="48.6314" lon="1.76682">
        <ele>155</ele>
        <time>2022-10-06T16:34:59+02:00</time>
      </trkpt>
      <trkpt lat="48.63161" lon="1.7667">
        <ele>155</ele>
        <time>2022-10-06T16:35:19+02:00</time>
      </trkpt>
      <trkpt lat="48.63183" lon="1.76658">
        <ele>154</ele>
        <time>2022-10-06T16:35:40+02:00</time>
      </trkpt>
      <trkpt lat="48.63204" lon="1.76645">
        <ele>155</ele>
        <time>2022-10-06T16:36:05+02:00</time>
      </trkpt>
      <trkpt lat="48.63226" lon="1.76646">
        <ele>155</ele>
        <time>2022-10-06T16:36:26+02:00</time>
      </trkpt>
      <trkpt lat="48.6324" lon="1.76674">
        <ele>153</ele>
        <time>2022-10-06T16:36:48+02:00</time>
      </trkpt>
      <trkpt lat="48.63253" lon="1.76703">
        <ele>152</ele>
        <time>2022-10-06T16:37:09+02:00</time>
      </trkpt>
      <trkpt lat="48.63266" lon="1.76734">
        <ele>151</ele>
        <time>2022-10-06T16:37:33+02:00</time>
      </trkpt>
      <trkpt lat="48.63276" lon="1.76766">
        <ele>151</ele>
        <time>2022-10-06T16:37:55+02:00</time>
      </trkpt>
      <trkpt lat="48.63286" lon="1.76797">
        <ele>147</ele>
        <time>2022-10-06T16:38:19+02:00</time>
      </trkpt>
      <trkpt lat="48.63298" lon="1.76827">
        <ele>146</ele>
        <time>2022-10-06T16:38:42+02:00</time>
      </trkpt>
      <trkpt lat="48.6331" lon="1.76855">
        <ele>146</ele>
        <time>2022-10-06T16:39:04+02:00</time>
      </trkpt>
      <trkpt lat="48.63322" lon="1.76886">
        <ele>147</ele>
        <time>2022-10-06T16:39:25+02:00</time>
      </trkpt>
      <trkpt lat="48.63335" lon="1.76914">
        <ele>147</ele>
        <time>2022-10-06T16:39:47+02:00</time>
      </trkpt>
      <trkpt lat="48.63345" lon="1.76945">
        <ele>146</ele>
        <time>2022-10-06T16:40:05+02:00</time>
      </trkpt>
      <trkpt lat="48.63356" lon="1.76976">
        <ele>146</ele>
        <time>2022-10-06T16:40:25+02:00</time>
      </trkpt>
      <trkpt lat="48.63363" lon="1.7701">
        <ele>148</ele>
        <time>2022-10-06T16:40:48+02:00</time>
      </trkpt>
      <trkpt lat="48.63368" lon="1.77045">
        <ele>148</ele>
        <time>2022-10-06T16:41:11+02:00</time>
      </trkpt>
      <trkpt lat="48.63371" lon="1.77079">
        <ele>149</ele>
        <time>2022-10-06T16:41:33+02:00</time>
      </trkpt>
      <trkpt lat="48.63379" lon="1.77112">
        <ele>149</ele>
        <time>2022-10-06T16:41:58+02:00</time>
      </trkpt>
      <trkpt lat="48.63388" lon="1.77143">
        <ele>150</ele>
        <time>2022-10-06T16:42:31+02:00</time>
      </trkpt>
      <trkpt lat="48.63409" lon="1.77129">
        <ele>148</ele>
        <time>2022-10-06T16:42:55+02:00</time>
      </trkpt>
      <trkpt lat="48.6343" lon="1.77114">
        <ele>145</ele>
        <time>2022-10-06T16:43:23+02:00</time>
      </trkpt>
      <trkpt lat="48.63453" lon="1.77105">
        <ele>143</ele>
        <time>2022-10-06T16:43:49+02:00</time>
      </trkpt>
      <trkpt lat="48.63475" lon="1.77095">
        <ele>141</ele>
        <time>2022-10-06T16:44:14+02:00</time>
      </trkpt>
      <trkpt lat="48.63499" lon="1.7709">
        <ele>140</ele>
        <time>2022-10-06T16:44:42+02:00</time>
      </trkpt>
      <trkpt lat="48.63522" lon="1.77094">
        <ele>139</ele>
        <time>2022-10-06T16:45:05+02:00</time>
      </trkpt>
      <trkpt lat="48.63545" lon="1.77096">
        <ele>138</ele>
        <time>2022-10-06T16:45:33+02:00</time>
      </trkpt>
      <trkpt lat="48.63565" lon="1.77114">
        <ele>136</ele>
        <time>2022-10-06T16:46:02+02:00</time>
      </trkpt>
      <trkpt lat="48.63565" lon="1.77149">
        <ele>131</ele>
        <time>2022-10-06T16:46:26+02:00</time>
      </trkpt>
      <trkpt lat="48.63558" lon="1.77182">
        <ele>134</ele>
        <time>2022-10-06T16:46:48+02:00</time>
      </trkpt>
      <trkpt lat="48.63553" lon="1.77217">
        <ele>134</ele>
        <time>2022-10-06T16:47:10+02:00</time>
      </trkpt>
      <trkpt lat="48.63547" lon="1.77251">
        <ele>134</ele>
        <time>2022-10-06T16:47:33+02:00</time>
      </trkpt>
      <trkpt lat="48.63541" lon="1.77285">
        <ele>134</ele>
        <time>2022-10-06T16:47:59+02:00</time>
      </trkpt>
      <trkpt lat="48.63533" lon="1.77318">
        <ele>135</ele>
        <time>2022-10-06T16:48:24+02:00</time>
      </trkpt>
      <trkpt lat="48.63528" lon="1.77351">
        <ele>134</ele>
        <time>2022-10-06T16:48:47+02:00</time>
      </trkpt>
      <trkpt lat="48.63544" lon="1.77377">
        <ele>135</ele>
        <time>2022-10-06T16:49:21+02:00</time>
      </trkpt>
      <trkpt lat="48.63566" lon="1.77384">
        <ele>134</ele>
        <time>2022-10-06T16:49:46+02:00</time>
      </trkpt>
      <trkpt lat="48.63587" lon="1.77399">
        <ele>133</ele>
        <time>2022-10-06T16:50:10+02:00</time>
      </trkpt>
      <trkpt lat="48.63609" lon="1.77407">
        <ele>134</ele>
        <time>2022-10-06T16:50:41+02:00</time>
      </trkpt>
    </trkseg>
  </trk>
</gpx>